<?xml version="1.0" encoding="UTF-8" standalone="no" ?>
<gpx xmlns="http://www.topografix.com/GPX/1/1" xmlns:xsi="http://www.w3.org/2001/XMLSchema-instance" xsi:schemaLocation="http://www.topografix.com/GPX/1/1 http://www.topografix.com/GPX/1/1/gpx.xsd" version="1.1" creator="VisuGPX - https://www.visugpx.com">
  <metadata>
    <name>Falaises Soubeyranes</name>
    <desc><![CDATA[Difficulté moyenne, panorama magnifique!]]></desc>
  </metadata>
  <trk>
    <name><![CDATA[Falaises Soubeyranes_1]]></name>
    <trkseg>
      <trkpt lat="43.18316" lon="5.59897">
        <ele>44.2</ele>
        <time>2016-04-20T06:07:14Z</time>
      </trkpt>
      <trkpt lat="43.18316" lon="5.59897">
        <ele>44.2</ele>
        <time>2016-04-20T06:07:15Z</time>
      </trkpt>
      <trkpt lat="43.18346" lon="5.5992">
        <ele>34.7</ele>
        <time>2016-04-20T06:08:22Z</time>
      </trkpt>
      <trkpt lat="43.18347" lon="5.5992">
        <ele>34.5</ele>
        <time>2016-04-20T06:08:23Z</time>
      </trkpt>
      <trkpt lat="43.18376" lon="5.59941">
        <ele>31.8</ele>
        <time>2016-04-20T06:08:54Z</time>
      </trkpt>
      <trkpt lat="43.18393" lon="5.5994">
        <ele>32.2</ele>
        <time>2016-04-20T06:09:10Z</time>
      </trkpt>
      <trkpt lat="43.18394" lon="5.59916">
        <ele>35</ele>
        <time>2016-04-20T06:09:34Z</time>
      </trkpt>
      <trkpt lat="43.18393" lon="5.59915">
        <ele>34.7</ele>
        <time>2016-04-20T06:09:35Z</time>
      </trkpt>
      <trkpt lat="43.18365" lon="5.59893">
        <ele>35.7</ele>
        <time>2016-04-20T06:10:06Z</time>
      </trkpt>
      <trkpt lat="43.18349" lon="5.59882">
        <ele>38</ele>
        <time>2016-04-20T06:10:21Z</time>
      </trkpt>
      <trkpt lat="43.18334" lon="5.59869">
        <ele>41.7</ele>
        <time>2016-04-20T06:10:37Z</time>
      </trkpt>
      <trkpt lat="43.18334" lon="5.59868">
        <ele>41.9</ele>
        <time>2016-04-20T06:10:38Z</time>
      </trkpt>
      <trkpt lat="43.18314" lon="5.5983">
        <ele>41.5</ele>
        <time>2016-04-20T06:11:08Z</time>
      </trkpt>
      <trkpt lat="43.18303" lon="5.59812">
        <ele>42</ele>
        <time>2016-04-20T06:11:24Z</time>
      </trkpt>
      <trkpt lat="43.18291" lon="5.59794">
        <ele>47.4</ele>
        <time>2016-04-20T06:11:41Z</time>
      </trkpt>
      <trkpt lat="43.1829" lon="5.59793">
        <ele>47.7</ele>
        <time>2016-04-20T06:11:42Z</time>
      </trkpt>
      <trkpt lat="43.1826" lon="5.5979">
        <ele>49.4</ele>
        <time>2016-04-20T06:12:13Z</time>
      </trkpt>
      <trkpt lat="43.18242" lon="5.59793">
        <ele>48.4</ele>
        <time>2016-04-20T06:12:29Z</time>
      </trkpt>
      <trkpt lat="43.18226" lon="5.59794">
        <ele>46</ele>
        <time>2016-04-20T06:12:42Z</time>
      </trkpt>
      <trkpt lat="43.18224" lon="5.59795">
        <ele>46</ele>
        <time>2016-04-20T06:12:43Z</time>
      </trkpt>
      <trkpt lat="43.18191" lon="5.59794">
        <ele>43.7</ele>
        <time>2016-04-20T06:13:12Z</time>
      </trkpt>
      <trkpt lat="43.18174" lon="5.59789">
        <ele>44.7</ele>
        <time>2016-04-20T06:13:27Z</time>
      </trkpt>
      <trkpt lat="43.18158" lon="5.59779">
        <ele>46</ele>
        <time>2016-04-20T06:13:43Z</time>
      </trkpt>
      <trkpt lat="43.18158" lon="5.59777">
        <ele>45.5</ele>
        <time>2016-04-20T06:13:44Z</time>
      </trkpt>
      <trkpt lat="43.18144" lon="5.59735">
        <ele>35.4</ele>
        <time>2016-04-20T06:14:12Z</time>
      </trkpt>
      <trkpt lat="43.18139" lon="5.59713">
        <ele>30</ele>
        <time>2016-04-20T06:14:28Z</time>
      </trkpt>
      <trkpt lat="43.18137" lon="5.59688">
        <ele>29.7</ele>
        <time>2016-04-20T06:14:47Z</time>
      </trkpt>
      <trkpt lat="43.18137" lon="5.59687">
        <ele>30.6</ele>
        <time>2016-04-20T06:14:48Z</time>
      </trkpt>
      <trkpt lat="43.18145" lon="5.59642">
        <ele>43.4</ele>
        <time>2016-04-20T06:15:16Z</time>
      </trkpt>
      <trkpt lat="43.18145" lon="5.59618">
        <ele>45.7</ele>
        <time>2016-04-20T06:15:30Z</time>
      </trkpt>
      <trkpt lat="43.18145" lon="5.59595">
        <ele>47.7</ele>
        <time>2016-04-20T06:15:44Z</time>
      </trkpt>
      <trkpt lat="43.18145" lon="5.5957">
        <ele>46.9</ele>
        <time>2016-04-20T06:16:00Z</time>
      </trkpt>
      <trkpt lat="43.18145" lon="5.59568">
        <ele>47.5</ele>
        <time>2016-04-20T06:16:01Z</time>
      </trkpt>
      <trkpt lat="43.18145" lon="5.59522">
        <ele>54.2</ele>
        <time>2016-04-20T06:16:30Z</time>
      </trkpt>
      <trkpt lat="43.18147" lon="5.59498">
        <ele>57.4</ele>
        <time>2016-04-20T06:16:45Z</time>
      </trkpt>
      <trkpt lat="43.18146" lon="5.59475">
        <ele>63.2</ele>
        <time>2016-04-20T06:16:59Z</time>
      </trkpt>
      <trkpt lat="43.18145" lon="5.59452">
        <ele>61.5</ele>
        <time>2016-04-20T06:17:14Z</time>
      </trkpt>
      <trkpt lat="43.18145" lon="5.5945">
        <ele>61.7</ele>
        <time>2016-04-20T06:17:15Z</time>
      </trkpt>
      <trkpt lat="43.1815" lon="5.59405">
        <ele>57</ele>
        <time>2016-04-20T06:17:49Z</time>
      </trkpt>
      <trkpt lat="43.18154" lon="5.59381">
        <ele>61</ele>
        <time>2016-04-20T06:18:06Z</time>
      </trkpt>
      <trkpt lat="43.18157" lon="5.59357">
        <ele>52.7</ele>
        <time>2016-04-20T06:18:24Z</time>
      </trkpt>
      <trkpt lat="43.18157" lon="5.59356">
        <ele>52.4</ele>
        <time>2016-04-20T06:18:25Z</time>
      </trkpt>
      <trkpt lat="43.18172" lon="5.59316">
        <ele>63.7</ele>
        <time>2016-04-20T06:18:54Z</time>
      </trkpt>
      <trkpt lat="43.18185" lon="5.59301">
        <ele>68.1</ele>
        <time>2016-04-20T06:19:09Z</time>
      </trkpt>
      <trkpt lat="43.18198" lon="5.59286">
        <ele>71</ele>
        <time>2016-04-20T06:19:24Z</time>
      </trkpt>
      <trkpt lat="43.18211" lon="5.59272">
        <ele>74.4</ele>
        <time>2016-04-20T06:19:37Z</time>
      </trkpt>
      <trkpt lat="43.18212" lon="5.59271">
        <ele>74.3</ele>
        <time>2016-04-20T06:19:38Z</time>
      </trkpt>
      <trkpt lat="43.18224" lon="5.59229">
        <ele>74.5</ele>
        <time>2016-04-20T06:20:06Z</time>
      </trkpt>
      <trkpt lat="43.18229" lon="5.59206">
        <ele>82.3</ele>
        <time>2016-04-20T06:20:23Z</time>
      </trkpt>
      <trkpt lat="43.18231" lon="5.59182">
        <ele>87.1</ele>
        <time>2016-04-20T06:20:41Z</time>
      </trkpt>
      <trkpt lat="43.18232" lon="5.59181">
        <ele>87.4</ele>
        <time>2016-04-20T06:20:42Z</time>
      </trkpt>
      <trkpt lat="43.18222" lon="5.59139">
        <ele>96.6</ele>
        <time>2016-04-20T06:21:12Z</time>
      </trkpt>
      <trkpt lat="43.18205" lon="5.59132">
        <ele>84.5</ele>
        <time>2016-04-20T06:21:31Z</time>
      </trkpt>
      <trkpt lat="43.18188" lon="5.59127">
        <ele>78.1</ele>
        <time>2016-04-20T06:21:49Z</time>
      </trkpt>
      <trkpt lat="43.18187" lon="5.59127">
        <ele>78</ele>
        <time>2016-04-20T06:21:50Z</time>
      </trkpt>
      <trkpt lat="43.1817" lon="5.59128">
        <ele>87.9</ele>
        <time>2016-04-20T06:24:05Z</time>
      </trkpt>
      <trkpt lat="43.18136" lon="5.59141">
        <ele>84.5</ele>
        <time>2016-04-20T06:24:42Z</time>
      </trkpt>
      <trkpt lat="43.1812" lon="5.59149">
        <ele>82</ele>
        <time>2016-04-20T06:24:57Z</time>
      </trkpt>
      <trkpt lat="43.18103" lon="5.59152">
        <ele>83.5</ele>
        <time>2016-04-20T06:25:12Z</time>
      </trkpt>
      <trkpt lat="43.18102" lon="5.59153">
        <ele>83</ele>
        <time>2016-04-20T06:25:13Z</time>
      </trkpt>
      <trkpt lat="43.18068" lon="5.5915">
        <ele>80.5</ele>
        <time>2016-04-20T06:25:42Z</time>
      </trkpt>
      <trkpt lat="43.1805" lon="5.5915">
        <ele>80.9</ele>
        <time>2016-04-20T06:25:57Z</time>
      </trkpt>
      <trkpt lat="43.18033" lon="5.5915">
        <ele>82</ele>
        <time>2016-04-20T06:26:12Z</time>
      </trkpt>
      <trkpt lat="43.18015" lon="5.5915">
        <ele>83.3</ele>
        <time>2016-04-20T06:26:27Z</time>
      </trkpt>
      <trkpt lat="43.18014" lon="5.5915">
        <ele>83.4</ele>
        <time>2016-04-20T06:26:28Z</time>
      </trkpt>
      <trkpt lat="43.17982" lon="5.59136">
        <ele>79</ele>
        <time>2016-04-20T06:27:06Z</time>
      </trkpt>
      <trkpt lat="43.17971" lon="5.59118">
        <ele>69.5</ele>
        <time>2016-04-20T06:27:24Z</time>
      </trkpt>
      <trkpt lat="43.17953" lon="5.59117">
        <ele>83</ele>
        <time>2016-04-20T06:27:51Z</time>
      </trkpt>
      <trkpt lat="43.17952" lon="5.59118">
        <ele>83.3</ele>
        <time>2016-04-20T06:27:52Z</time>
      </trkpt>
      <trkpt lat="43.17929" lon="5.59096">
        <ele>88.4</ele>
        <time>2016-04-20T06:28:33Z</time>
      </trkpt>
      <trkpt lat="43.17936" lon="5.59075">
        <ele>95.5</ele>
        <time>2016-04-20T06:28:48Z</time>
      </trkpt>
      <trkpt lat="43.17935" lon="5.59051">
        <ele>93.8</ele>
        <time>2016-04-20T06:29:09Z</time>
      </trkpt>
      <trkpt lat="43.17936" lon="5.5905">
        <ele>93.5</ele>
        <time>2016-04-20T06:29:10Z</time>
      </trkpt>
      <trkpt lat="43.17936" lon="5.59003">
        <ele>104.9</ele>
        <time>2016-04-20T06:29:54Z</time>
      </trkpt>
      <trkpt lat="43.17933" lon="5.58978">
        <ele>105.8</ele>
        <time>2016-04-20T06:30:20Z</time>
      </trkpt>
      <trkpt lat="43.17932" lon="5.58978">
        <ele>105.6</ele>
        <time>2016-04-20T06:30:21Z</time>
      </trkpt>
      <trkpt lat="43.17905" lon="5.58951">
        <ele>109.6</ele>
        <time>2016-04-20T06:31:22Z</time>
      </trkpt>
      <trkpt lat="43.17904" lon="5.58951">
        <ele>109.5</ele>
        <time>2016-04-20T06:31:23Z</time>
      </trkpt>
      <trkpt lat="43.17872" lon="5.58966">
        <ele>111.5</ele>
        <time>2016-04-20T06:31:58Z</time>
      </trkpt>
      <trkpt lat="43.17854" lon="5.58967">
        <ele>116.6</ele>
        <time>2016-04-20T06:32:32Z</time>
      </trkpt>
      <trkpt lat="43.17854" lon="5.58967">
        <ele>116.9</ele>
        <time>2016-04-20T06:32:33Z</time>
      </trkpt>
      <trkpt lat="43.17821" lon="5.58955">
        <ele>119.4</ele>
        <time>2016-04-20T06:33:21Z</time>
      </trkpt>
      <trkpt lat="43.17808" lon="5.58939">
        <ele>116.3</ele>
        <time>2016-04-20T06:33:38Z</time>
      </trkpt>
      <trkpt lat="43.17807" lon="5.58939">
        <ele>115.1</ele>
        <time>2016-04-20T06:33:39Z</time>
      </trkpt>
      <trkpt lat="43.17783" lon="5.58906">
        <ele>104.6</ele>
        <time>2016-04-20T06:34:16Z</time>
      </trkpt>
      <trkpt lat="43.17767" lon="5.58912">
        <ele>120.4</ele>
        <time>2016-04-20T06:34:50Z</time>
      </trkpt>
      <trkpt lat="43.17766" lon="5.58914">
        <ele>120.6</ele>
        <time>2016-04-20T06:34:51Z</time>
      </trkpt>
      <trkpt lat="43.17744" lon="5.58946">
        <ele>126</ele>
        <time>2016-04-20T06:35:33Z</time>
      </trkpt>
      <trkpt lat="43.17728" lon="5.58956">
        <ele>129</ele>
        <time>2016-04-20T06:35:59Z</time>
      </trkpt>
      <trkpt lat="43.17727" lon="5.58957">
        <ele>128.8</ele>
        <time>2016-04-20T06:36:00Z</time>
      </trkpt>
      <trkpt lat="43.17696" lon="5.58938">
        <ele>135.8</ele>
        <time>2016-04-20T06:36:54Z</time>
      </trkpt>
      <trkpt lat="43.17682" lon="5.58925">
        <ele>137.8</ele>
        <time>2016-04-20T06:37:26Z</time>
      </trkpt>
      <trkpt lat="43.17681" lon="5.58925">
        <ele>137.6</ele>
        <time>2016-04-20T06:37:27Z</time>
      </trkpt>
      <trkpt lat="43.17647" lon="5.58926">
        <ele>144.8</ele>
        <time>2016-04-20T06:38:13Z</time>
      </trkpt>
      <trkpt lat="43.17637" lon="5.58945">
        <ele>149.1</ele>
        <time>2016-04-20T06:38:35Z</time>
      </trkpt>
      <trkpt lat="43.17636" lon="5.58945">
        <ele>149.3</ele>
        <time>2016-04-20T06:38:36Z</time>
      </trkpt>
      <trkpt lat="43.17613" lon="5.5898">
        <ele>153.1</ele>
        <time>2016-04-20T06:39:13Z</time>
      </trkpt>
      <trkpt lat="43.17602" lon="5.58999">
        <ele>155.1</ele>
        <time>2016-04-20T06:39:33Z</time>
      </trkpt>
      <trkpt lat="43.17589" lon="5.59015">
        <ele>154.8</ele>
        <time>2016-04-20T06:39:50Z</time>
      </trkpt>
      <trkpt lat="43.17588" lon="5.59016">
        <ele>154.8</ele>
        <time>2016-04-20T06:39:51Z</time>
      </trkpt>
      <trkpt lat="43.17562" lon="5.59045">
        <ele>153.1</ele>
        <time>2016-04-20T06:40:25Z</time>
      </trkpt>
      <trkpt lat="43.1755" lon="5.59061">
        <ele>153.8</ele>
        <time>2016-04-20T06:40:42Z</time>
      </trkpt>
      <trkpt lat="43.17535" lon="5.59075">
        <ele>153.3</ele>
        <time>2016-04-20T06:41:00Z</time>
      </trkpt>
      <trkpt lat="43.17534" lon="5.59075">
        <ele>153.3</ele>
        <time>2016-04-20T06:41:01Z</time>
      </trkpt>
      <trkpt lat="43.17503" lon="5.59093">
        <ele>155.1</ele>
        <time>2016-04-20T06:41:34Z</time>
      </trkpt>
      <trkpt lat="43.17487" lon="5.59101">
        <ele>154.6</ele>
        <time>2016-04-20T06:41:51Z</time>
      </trkpt>
      <trkpt lat="43.1747" lon="5.59102">
        <ele>154.1</ele>
        <time>2016-04-20T06:42:08Z</time>
      </trkpt>
      <trkpt lat="43.17469" lon="5.59103">
        <ele>154.3</ele>
        <time>2016-04-20T06:42:09Z</time>
      </trkpt>
      <trkpt lat="43.17435" lon="5.59097">
        <ele>154.3</ele>
        <time>2016-04-20T06:45:47Z</time>
      </trkpt>
      <trkpt lat="43.17435" lon="5.59096">
        <ele>154.5</ele>
        <time>2016-04-20T06:45:48Z</time>
      </trkpt>
      <trkpt lat="43.17437" lon="5.5905">
        <ele>164.1</ele>
        <time>2016-04-20T06:46:45Z</time>
      </trkpt>
      <trkpt lat="43.17444" lon="5.59028">
        <ele>164.6</ele>
        <time>2016-04-20T06:47:11Z</time>
      </trkpt>
      <trkpt lat="43.17444" lon="5.59027">
        <ele>165.3</ele>
        <time>2016-04-20T06:47:12Z</time>
      </trkpt>
      <trkpt lat="43.1745" lon="5.58981">
        <ele>168.1</ele>
        <time>2016-04-20T06:48:03Z</time>
      </trkpt>
      <trkpt lat="43.17455" lon="5.58957">
        <ele>176.6</ele>
        <time>2016-04-20T06:48:29Z</time>
      </trkpt>
      <trkpt lat="43.17455" lon="5.58956">
        <ele>176.6</ele>
        <time>2016-04-20T06:48:30Z</time>
      </trkpt>
      <trkpt lat="43.17449" lon="5.58911">
        <ele>176.3</ele>
        <time>2016-04-20T06:49:21Z</time>
      </trkpt>
      <trkpt lat="43.17451" lon="5.58887">
        <ele>182.8</ele>
        <time>2016-04-20T06:49:47Z</time>
      </trkpt>
      <trkpt lat="43.17451" lon="5.58886">
        <ele>183.1</ele>
        <time>2016-04-20T06:49:48Z</time>
      </trkpt>
      <trkpt lat="43.17466" lon="5.58842">
        <ele>192.6</ele>
        <time>2016-04-20T06:50:49Z</time>
      </trkpt>
      <trkpt lat="43.17466" lon="5.58842">
        <ele>192.6</ele>
        <time>2016-04-20T06:50:50Z</time>
      </trkpt>
      <trkpt lat="43.17479" lon="5.58798">
        <ele>198.6</ele>
        <time>2016-04-20T06:51:44Z</time>
      </trkpt>
      <trkpt lat="43.17482" lon="5.58775">
        <ele>200.1</ele>
        <time>2016-04-20T06:52:09Z</time>
      </trkpt>
      <trkpt lat="43.17482" lon="5.58774">
        <ele>200.8</ele>
        <time>2016-04-20T06:52:10Z</time>
      </trkpt>
      <trkpt lat="43.1749" lon="5.58752">
        <ele>209.8</ele>
        <time>2016-04-20T06:54:27Z</time>
      </trkpt>
      <trkpt lat="43.1751" lon="5.58713">
        <ele>213.3</ele>
        <time>2016-04-20T06:55:09Z</time>
      </trkpt>
      <trkpt lat="43.17521" lon="5.58696">
        <ele>214.5</ele>
        <time>2016-04-20T06:55:30Z</time>
      </trkpt>
      <trkpt lat="43.17522" lon="5.58694">
        <ele>214.3</ele>
        <time>2016-04-20T06:55:31Z</time>
      </trkpt>
      <trkpt lat="43.17544" lon="5.58658">
        <ele>219.1</ele>
        <time>2016-04-20T06:56:15Z</time>
      </trkpt>
      <trkpt lat="43.17555" lon="5.58639">
        <ele>221.6</ele>
        <time>2016-04-20T06:56:37Z</time>
      </trkpt>
      <trkpt lat="43.17555" lon="5.58639">
        <ele>221.5</ele>
        <time>2016-04-20T06:56:38Z</time>
      </trkpt>
      <trkpt lat="43.17571" lon="5.58597">
        <ele>225.3</ele>
        <time>2016-04-20T06:57:24Z</time>
      </trkpt>
      <trkpt lat="43.17581" lon="5.58577">
        <ele>227.8</ele>
        <time>2016-04-20T06:57:46Z</time>
      </trkpt>
      <trkpt lat="43.17581" lon="5.58576">
        <ele>227.8</ele>
        <time>2016-04-20T06:57:47Z</time>
      </trkpt>
      <trkpt lat="43.17603" lon="5.58538">
        <ele>229.1</ele>
        <time>2016-04-20T06:58:29Z</time>
      </trkpt>
      <trkpt lat="43.17614" lon="5.5852">
        <ele>231.6</ele>
        <time>2016-04-20T06:58:52Z</time>
      </trkpt>
      <trkpt lat="43.17615" lon="5.58519">
        <ele>231.6</ele>
        <time>2016-04-20T06:58:53Z</time>
      </trkpt>
      <trkpt lat="43.17633" lon="5.58478">
        <ele>238.3</ele>
        <time>2016-04-20T06:59:35Z</time>
      </trkpt>
      <trkpt lat="43.17641" lon="5.58458">
        <ele>239.8</ele>
        <time>2016-04-20T06:59:55Z</time>
      </trkpt>
      <trkpt lat="43.17642" lon="5.58457">
        <ele>239.8</ele>
        <time>2016-04-20T06:59:56Z</time>
      </trkpt>
      <trkpt lat="43.17662" lon="5.58418">
        <ele>242.8</ele>
        <time>2016-04-20T07:00:36Z</time>
      </trkpt>
      <trkpt lat="43.17668" lon="5.58396">
        <ele>244.5</ele>
        <time>2016-04-20T07:00:54Z</time>
      </trkpt>
      <trkpt lat="43.17672" lon="5.58372">
        <ele>247.1</ele>
        <time>2016-04-20T07:01:14Z</time>
      </trkpt>
      <trkpt lat="43.17673" lon="5.58371">
        <ele>247.3</ele>
        <time>2016-04-20T07:01:15Z</time>
      </trkpt>
      <trkpt lat="43.17682" lon="5.58326">
        <ele>250.3</ele>
        <time>2016-04-20T07:02:00Z</time>
      </trkpt>
      <trkpt lat="43.17687" lon="5.58303">
        <ele>254.3</ele>
        <time>2016-04-20T07:02:27Z</time>
      </trkpt>
      <trkpt lat="43.17687" lon="5.58302">
        <ele>254.6</ele>
        <time>2016-04-20T07:02:28Z</time>
      </trkpt>
      <trkpt lat="43.177" lon="5.58257">
        <ele>259.2</ele>
        <time>2016-04-20T07:03:17Z</time>
      </trkpt>
      <trkpt lat="43.17708" lon="5.58236">
        <ele>262.2</ele>
        <time>2016-04-20T07:03:40Z</time>
      </trkpt>
      <trkpt lat="43.17708" lon="5.58235">
        <ele>262.5</ele>
        <time>2016-04-20T07:03:41Z</time>
      </trkpt>
      <trkpt lat="43.17729" lon="5.58197">
        <ele>266.2</ele>
        <time>2016-04-20T07:04:21Z</time>
      </trkpt>
      <trkpt lat="43.17739" lon="5.58177">
        <ele>268.5</ele>
        <time>2016-04-20T07:04:42Z</time>
      </trkpt>
      <trkpt lat="43.17739" lon="5.58176">
        <ele>268.6</ele>
        <time>2016-04-20T07:04:43Z</time>
      </trkpt>
      <trkpt lat="43.17755" lon="5.58135">
        <ele>271.3</ele>
        <time>2016-04-20T07:05:23Z</time>
      </trkpt>
      <trkpt lat="43.17764" lon="5.58113">
        <ele>272.5</ele>
        <time>2016-04-20T07:05:44Z</time>
      </trkpt>
      <trkpt lat="43.17764" lon="5.58112">
        <ele>272.6</ele>
        <time>2016-04-20T07:05:45Z</time>
      </trkpt>
      <trkpt lat="43.17781" lon="5.58071">
        <ele>275.1</ele>
        <time>2016-04-20T07:06:22Z</time>
      </trkpt>
      <trkpt lat="43.17789" lon="5.5805">
        <ele>279.2</ele>
        <time>2016-04-20T07:06:42Z</time>
      </trkpt>
      <trkpt lat="43.17799" lon="5.5803">
        <ele>279.3</ele>
        <time>2016-04-20T07:07:04Z</time>
      </trkpt>
      <trkpt lat="43.17799" lon="5.58029">
        <ele>279.6</ele>
        <time>2016-04-20T07:07:05Z</time>
      </trkpt>
      <trkpt lat="43.17825" lon="5.57999">
        <ele>284.2</ele>
        <time>2016-04-20T07:09:13Z</time>
      </trkpt>
      <trkpt lat="43.17826" lon="5.57998">
        <ele>284.1</ele>
        <time>2016-04-20T07:09:14Z</time>
      </trkpt>
      <trkpt lat="43.17856" lon="5.57979">
        <ele>286</ele>
        <time>2016-04-20T07:09:51Z</time>
      </trkpt>
      <trkpt lat="43.17873" lon="5.57971">
        <ele>288.1</ele>
        <time>2016-04-20T07:10:09Z</time>
      </trkpt>
      <trkpt lat="43.1789" lon="5.57964">
        <ele>289.2</ele>
        <time>2016-04-20T07:10:27Z</time>
      </trkpt>
      <trkpt lat="43.1789" lon="5.57964">
        <ele>289.5</ele>
        <time>2016-04-20T07:10:28Z</time>
      </trkpt>
      <trkpt lat="43.17922" lon="5.57943">
        <ele>291.3</ele>
        <time>2016-04-20T07:11:08Z</time>
      </trkpt>
      <trkpt lat="43.17937" lon="5.57932">
        <ele>291.2</ele>
        <time>2016-04-20T07:11:27Z</time>
      </trkpt>
      <trkpt lat="43.17952" lon="5.57922">
        <ele>291.8</ele>
        <time>2016-04-20T07:11:45Z</time>
      </trkpt>
      <trkpt lat="43.17953" lon="5.57922">
        <ele>291.7</ele>
        <time>2016-04-20T07:11:46Z</time>
      </trkpt>
      <trkpt lat="43.17981" lon="5.57896">
        <ele>294.3</ele>
        <time>2016-04-20T07:12:22Z</time>
      </trkpt>
      <trkpt lat="43.17992" lon="5.57877">
        <ele>290.5</ele>
        <time>2016-04-20T07:12:47Z</time>
      </trkpt>
      <trkpt lat="43.17993" lon="5.57876">
        <ele>290.5</ele>
        <time>2016-04-20T07:12:48Z</time>
      </trkpt>
      <trkpt lat="43.1801" lon="5.57836">
        <ele>296</ele>
        <time>2016-04-20T07:13:48Z</time>
      </trkpt>
      <trkpt lat="43.1801" lon="5.57835">
        <ele>296.2</ele>
        <time>2016-04-20T07:13:49Z</time>
      </trkpt>
      <trkpt lat="43.18024" lon="5.57791">
        <ele>299.1</ele>
        <time>2016-04-20T07:14:36Z</time>
      </trkpt>
      <trkpt lat="43.18031" lon="5.57769">
        <ele>303.5</ele>
        <time>2016-04-20T07:14:56Z</time>
      </trkpt>
      <trkpt lat="43.18031" lon="5.57768">
        <ele>303.3</ele>
        <time>2016-04-20T07:14:57Z</time>
      </trkpt>
      <trkpt lat="43.1803" lon="5.57723">
        <ele>306.7</ele>
        <time>2016-04-20T07:15:45Z</time>
      </trkpt>
      <trkpt lat="43.18019" lon="5.57704">
        <ele>310.6</ele>
        <time>2016-04-20T07:16:16Z</time>
      </trkpt>
      <trkpt lat="43.18018" lon="5.57703">
        <ele>310.7</ele>
        <time>2016-04-20T07:16:17Z</time>
      </trkpt>
      <trkpt lat="43.17983" lon="5.57699">
        <ele>316</ele>
        <time>2016-04-20T07:17:06Z</time>
      </trkpt>
      <trkpt lat="43.17967" lon="5.5769">
        <ele>316.7</ele>
        <time>2016-04-20T07:17:29Z</time>
      </trkpt>
      <trkpt lat="43.17966" lon="5.5769">
        <ele>316.8</ele>
        <time>2016-04-20T07:17:30Z</time>
      </trkpt>
      <trkpt lat="43.1794" lon="5.57664">
        <ele>322</ele>
        <time>2016-04-20T07:18:15Z</time>
      </trkpt>
      <trkpt lat="43.1794" lon="5.57641">
        <ele>322.2</ele>
        <time>2016-04-20T07:18:38Z</time>
      </trkpt>
      <trkpt lat="43.1794" lon="5.5764">
        <ele>322.3</ele>
        <time>2016-04-20T07:18:39Z</time>
      </trkpt>
      <trkpt lat="43.17936" lon="5.57617">
        <ele>328.3</ele>
        <time>2016-04-20T07:19:59Z</time>
      </trkpt>
      <trkpt lat="43.17919" lon="5.57574">
        <ele>325.6</ele>
        <time>2016-04-20T07:20:42Z</time>
      </trkpt>
      <trkpt lat="43.17916" lon="5.57551">
        <ele>322.3</ele>
        <time>2016-04-20T07:21:01Z</time>
      </trkpt>
      <trkpt lat="43.17916" lon="5.5755">
        <ele>322.5</ele>
        <time>2016-04-20T07:21:02Z</time>
      </trkpt>
      <trkpt lat="43.17909" lon="5.57504">
        <ele>317.2</ele>
        <time>2016-04-20T07:21:39Z</time>
      </trkpt>
      <trkpt lat="43.17908" lon="5.5748">
        <ele>316.7</ele>
        <time>2016-04-20T07:21:59Z</time>
      </trkpt>
      <trkpt lat="43.17905" lon="5.57457">
        <ele>318.6</ele>
        <time>2016-04-20T07:22:18Z</time>
      </trkpt>
      <trkpt lat="43.17905" lon="5.57455">
        <ele>318</ele>
        <time>2016-04-20T07:22:19Z</time>
      </trkpt>
      <trkpt lat="43.17895" lon="5.5741">
        <ele>325</ele>
        <time>2016-04-20T07:22:53Z</time>
      </trkpt>
      <trkpt lat="43.17886" lon="5.5739">
        <ele>330.2</ele>
        <time>2016-04-20T07:23:07Z</time>
      </trkpt>
      <trkpt lat="43.17874" lon="5.57374">
        <ele>329.6</ele>
        <time>2016-04-20T07:23:23Z</time>
      </trkpt>
      <trkpt lat="43.17873" lon="5.57373">
        <ele>329.7</ele>
        <time>2016-04-20T07:23:24Z</time>
      </trkpt>
      <trkpt lat="43.17848" lon="5.57343">
        <ele>326</ele>
        <time>2016-04-20T07:24:00Z</time>
      </trkpt>
      <trkpt lat="43.17834" lon="5.57329">
        <ele>328.3</ele>
        <time>2016-04-20T07:24:15Z</time>
      </trkpt>
      <trkpt lat="43.17822" lon="5.57315">
        <ele>328</ele>
        <time>2016-04-20T07:24:28Z</time>
      </trkpt>
      <trkpt lat="43.1782" lon="5.57312">
        <ele>329.6</ele>
        <time>2016-04-20T07:24:29Z</time>
      </trkpt>
      <trkpt lat="43.17797" lon="5.57281">
        <ele>326.7</ele>
        <time>2016-04-20T07:25:01Z</time>
      </trkpt>
      <trkpt lat="43.17781" lon="5.57271">
        <ele>328.7</ele>
        <time>2016-04-20T07:25:25Z</time>
      </trkpt>
      <trkpt lat="43.17764" lon="5.5727">
        <ele>330.3</ele>
        <time>2016-04-20T07:25:45Z</time>
      </trkpt>
      <trkpt lat="43.17763" lon="5.5727">
        <ele>330.2</ele>
        <time>2016-04-20T07:25:46Z</time>
      </trkpt>
      <trkpt lat="43.17731" lon="5.57287">
        <ele>326.8</ele>
        <time>2016-04-20T07:26:21Z</time>
      </trkpt>
      <trkpt lat="43.17715" lon="5.57296">
        <ele>325.3</ele>
        <time>2016-04-20T07:26:39Z</time>
      </trkpt>
      <trkpt lat="43.17709" lon="5.57273">
        <ele>320.7</ele>
        <time>2016-04-20T07:28:27Z</time>
      </trkpt>
      <trkpt lat="43.1771" lon="5.57272">
        <ele>320.7</ele>
        <time>2016-04-20T07:28:28Z</time>
      </trkpt>
      <trkpt lat="43.17718" lon="5.57226">
        <ele>317.7</ele>
        <time>2016-04-20T07:29:09Z</time>
      </trkpt>
      <trkpt lat="43.17719" lon="5.57202">
        <ele>316.5</ele>
        <time>2016-04-20T07:29:28Z</time>
      </trkpt>
      <trkpt lat="43.17719" lon="5.57201">
        <ele>316.5</ele>
        <time>2016-04-20T07:29:29Z</time>
      </trkpt>
      <trkpt lat="43.17747" lon="5.57176">
        <ele>314.1</ele>
        <time>2016-04-20T07:30:07Z</time>
      </trkpt>
      <trkpt lat="43.17764" lon="5.57173">
        <ele>309.7</ele>
        <time>2016-04-20T07:30:22Z</time>
      </trkpt>
      <trkpt lat="43.17781" lon="5.57171">
        <ele>309.8</ele>
        <time>2016-04-20T07:30:41Z</time>
      </trkpt>
      <trkpt lat="43.17782" lon="5.5717">
        <ele>310.2</ele>
        <time>2016-04-20T07:30:42Z</time>
      </trkpt>
      <trkpt lat="43.17816" lon="5.57164">
        <ele>306.2</ele>
        <time>2016-04-20T07:31:17Z</time>
      </trkpt>
      <trkpt lat="43.17833" lon="5.57165">
        <ele>305.6</ele>
        <time>2016-04-20T07:31:32Z</time>
      </trkpt>
      <trkpt lat="43.1785" lon="5.57161">
        <ele>304.7</ele>
        <time>2016-04-20T07:31:51Z</time>
      </trkpt>
      <trkpt lat="43.17851" lon="5.5716">
        <ele>304.8</ele>
        <time>2016-04-20T07:31:52Z</time>
      </trkpt>
      <trkpt lat="43.17883" lon="5.57146">
        <ele>298.5</ele>
        <time>2016-04-20T07:32:26Z</time>
      </trkpt>
      <trkpt lat="43.17899" lon="5.57136">
        <ele>298.1</ele>
        <time>2016-04-20T07:32:42Z</time>
      </trkpt>
      <trkpt lat="43.17915" lon="5.57129">
        <ele>300.1</ele>
        <time>2016-04-20T07:32:59Z</time>
      </trkpt>
      <trkpt lat="43.17916" lon="5.57127">
        <ele>299.7</ele>
        <time>2016-04-20T07:33:00Z</time>
      </trkpt>
      <trkpt lat="43.17906" lon="5.57083">
        <ele>299.6</ele>
        <time>2016-04-20T07:33:37Z</time>
      </trkpt>
      <trkpt lat="43.17904" lon="5.57059">
        <ele>301.8</ele>
        <time>2016-04-20T07:33:56Z</time>
      </trkpt>
      <trkpt lat="43.17906" lon="5.57036">
        <ele>303.2</ele>
        <time>2016-04-20T07:34:18Z</time>
      </trkpt>
      <trkpt lat="43.17906" lon="5.57035">
        <ele>303.1</ele>
        <time>2016-04-20T07:34:19Z</time>
      </trkpt>
      <trkpt lat="43.17912" lon="5.56988">
        <ele>308.2</ele>
        <time>2016-04-20T07:35:10Z</time>
      </trkpt>
      <trkpt lat="43.17924" lon="5.56969">
        <ele>319.2</ele>
        <time>2016-04-20T07:40:56Z</time>
      </trkpt>
      <trkpt lat="43.17924" lon="5.56969">
        <ele>319.2</ele>
        <time>2016-04-20T07:40:57Z</time>
      </trkpt>
      <trkpt lat="43.17959" lon="5.56966">
        <ele>321.8</ele>
        <time>2016-04-20T07:42:00Z</time>
      </trkpt>
      <trkpt lat="43.17959" lon="5.56966">
        <ele>322</ele>
        <time>2016-04-20T07:42:01Z</time>
      </trkpt>
      <trkpt lat="43.17992" lon="5.56971">
        <ele>325.7</ele>
        <time>2016-04-20T07:42:57Z</time>
      </trkpt>
      <trkpt lat="43.18005" lon="5.56954">
        <ele>325.2</ele>
        <time>2016-04-20T07:43:18Z</time>
      </trkpt>
      <trkpt lat="43.18006" lon="5.56953">
        <ele>325.1</ele>
        <time>2016-04-20T07:43:19Z</time>
      </trkpt>
      <trkpt lat="43.18028" lon="5.56918">
        <ele>328.1</ele>
        <time>2016-04-20T07:43:58Z</time>
      </trkpt>
      <trkpt lat="43.1804" lon="5.569">
        <ele>331.7</ele>
        <time>2016-04-20T07:44:27Z</time>
      </trkpt>
      <trkpt lat="43.1804" lon="5.56899">
        <ele>332.2</ele>
        <time>2016-04-20T07:44:28Z</time>
      </trkpt>
      <trkpt lat="43.18066" lon="5.56868">
        <ele>337.1</ele>
        <time>2016-04-20T07:45:19Z</time>
      </trkpt>
      <trkpt lat="43.18078" lon="5.56851">
        <ele>339</ele>
        <time>2016-04-20T07:45:41Z</time>
      </trkpt>
      <trkpt lat="43.18079" lon="5.5685">
        <ele>339</ele>
        <time>2016-04-20T07:45:42Z</time>
      </trkpt>
      <trkpt lat="43.181" lon="5.56813">
        <ele>340.5</ele>
        <time>2016-04-20T07:46:28Z</time>
      </trkpt>
      <trkpt lat="43.18108" lon="5.56792">
        <ele>344.3</ele>
        <time>2016-04-20T07:46:52Z</time>
      </trkpt>
      <trkpt lat="43.18109" lon="5.56791">
        <ele>344.6</ele>
        <time>2016-04-20T07:46:53Z</time>
      </trkpt>
      <trkpt lat="43.18116" lon="5.56745">
        <ele>348.7</ele>
        <time>2016-04-20T07:47:41Z</time>
      </trkpt>
      <trkpt lat="43.1812" lon="5.56721">
        <ele>350.7</ele>
        <time>2016-04-20T07:48:11Z</time>
      </trkpt>
      <trkpt lat="43.1812" lon="5.5672">
        <ele>350.7</ele>
        <time>2016-04-20T07:48:12Z</time>
      </trkpt>
      <trkpt lat="43.1813" lon="5.56675">
        <ele>358.2</ele>
        <time>2016-04-20T07:49:05Z</time>
      </trkpt>
      <trkpt lat="43.18135" lon="5.56652">
        <ele>361.2</ele>
        <time>2016-04-20T07:49:30Z</time>
      </trkpt>
      <trkpt lat="43.18135" lon="5.56651">
        <ele>361.5</ele>
        <time>2016-04-20T07:49:31Z</time>
      </trkpt>
      <trkpt lat="43.18147" lon="5.56607">
        <ele>368.3</ele>
        <time>2016-04-20T07:50:24Z</time>
      </trkpt>
      <trkpt lat="43.18165" lon="5.56604">
        <ele>376.5</ele>
        <time>2016-04-20T07:52:52Z</time>
      </trkpt>
      <trkpt lat="43.18165" lon="5.56604">
        <ele>376.5</ele>
        <time>2016-04-20T07:52:53Z</time>
      </trkpt>
      <trkpt lat="43.18175" lon="5.56625">
        <ele>377.1</ele>
        <time>2016-04-20T07:54:21Z</time>
      </trkpt>
      <trkpt lat="43.18193" lon="5.56627">
        <ele>387.8</ele>
        <time>2016-04-20T07:57:00Z</time>
      </trkpt>
      <trkpt lat="43.18227" lon="5.5662">
        <ele>393.1</ele>
        <time>2016-04-20T07:57:49Z</time>
      </trkpt>
      <trkpt lat="43.18243" lon="5.56609">
        <ele>395</ele>
        <time>2016-04-20T07:58:12Z</time>
      </trkpt>
      <trkpt lat="43.18244" lon="5.56609">
        <ele>395.1</ele>
        <time>2016-04-20T07:58:13Z</time>
      </trkpt>
      <trkpt lat="43.18268" lon="5.56576">
        <ele>395.7</ele>
        <time>2016-04-20T07:59:54Z</time>
      </trkpt>
      <trkpt lat="43.18268" lon="5.56575">
        <ele>395.7</ele>
        <time>2016-04-20T07:59:55Z</time>
      </trkpt>
      <trkpt lat="43.18285" lon="5.56534">
        <ele>395.3</ele>
        <time>2016-04-20T08:00:31Z</time>
      </trkpt>
      <trkpt lat="43.18302" lon="5.56527">
        <ele>393.2</ele>
        <time>2016-04-20T08:00:53Z</time>
      </trkpt>
      <trkpt lat="43.1832" lon="5.56526">
        <ele>387.2</ele>
        <time>2016-04-20T08:01:15Z</time>
      </trkpt>
      <trkpt lat="43.18321" lon="5.56526">
        <ele>387.1</ele>
        <time>2016-04-20T08:01:16Z</time>
      </trkpt>
      <trkpt lat="43.18341" lon="5.56492">
        <ele>388.1</ele>
        <time>2016-04-20T08:01:59Z</time>
      </trkpt>
      <trkpt lat="43.18353" lon="5.56474">
        <ele>388.5</ele>
        <time>2016-04-20T08:02:25Z</time>
      </trkpt>
      <trkpt lat="43.18353" lon="5.56474">
        <ele>388.3</ele>
        <time>2016-04-20T08:02:26Z</time>
      </trkpt>
      <trkpt lat="43.18383" lon="5.5646">
        <ele>375.5</ele>
        <time>2016-04-20T08:04:16Z</time>
      </trkpt>
      <trkpt lat="43.18383" lon="5.56459">
        <ele>375.3</ele>
        <time>2016-04-20T08:04:17Z</time>
      </trkpt>
      <trkpt lat="43.1839" lon="5.56437">
        <ele>367.1</ele>
        <time>2016-04-20T08:05:34Z</time>
      </trkpt>
      <trkpt lat="43.18405" lon="5.56394">
        <ele>361.7</ele>
        <time>2016-04-20T08:06:48Z</time>
      </trkpt>
      <trkpt lat="43.18405" lon="5.56394">
        <ele>361.7</ele>
        <time>2016-04-20T08:06:49Z</time>
      </trkpt>
      <trkpt lat="43.18421" lon="5.56351">
        <ele>353.7</ele>
        <time>2016-04-20T08:08:17Z</time>
      </trkpt>
      <trkpt lat="43.18421" lon="5.5635">
        <ele>353.7</ele>
        <time>2016-04-20T08:08:18Z</time>
      </trkpt>
      <trkpt lat="43.18436" lon="5.56338">
        <ele>345</ele>
        <time>2016-04-20T08:17:38Z</time>
      </trkpt>
      <trkpt lat="43.18465" lon="5.56312">
        <ele>327.7</ele>
        <time>2016-04-20T08:19:04Z</time>
      </trkpt>
      <trkpt lat="43.18466" lon="5.56312">
        <ele>327.5</ele>
        <time>2016-04-20T08:19:05Z</time>
      </trkpt>
      <trkpt lat="43.18495" lon="5.56286">
        <ele>321.7</ele>
        <time>2016-04-20T08:19:49Z</time>
      </trkpt>
      <trkpt lat="43.18511" lon="5.56275">
        <ele>323.8</ele>
        <time>2016-04-20T08:23:21Z</time>
      </trkpt>
      <trkpt lat="43.18512" lon="5.56274">
        <ele>324.1</ele>
        <time>2016-04-20T08:23:22Z</time>
      </trkpt>
      <trkpt lat="43.18546" lon="5.5627">
        <ele>326.5</ele>
        <time>2016-04-20T08:24:07Z</time>
      </trkpt>
      <trkpt lat="43.18558" lon="5.56252">
        <ele>328.5</ele>
        <time>2016-04-20T08:24:26Z</time>
      </trkpt>
      <trkpt lat="43.18558" lon="5.56251">
        <ele>328.7</ele>
        <time>2016-04-20T08:24:27Z</time>
      </trkpt>
      <trkpt lat="43.1857" lon="5.56207">
        <ele>329</ele>
        <time>2016-04-20T08:25:17Z</time>
      </trkpt>
      <trkpt lat="43.18581" lon="5.56189">
        <ele>323.2</ele>
        <time>2016-04-20T08:25:54Z</time>
      </trkpt>
      <trkpt lat="43.18581" lon="5.56188">
        <ele>323.2</ele>
        <time>2016-04-20T08:25:55Z</time>
      </trkpt>
      <trkpt lat="43.18597" lon="5.56147">
        <ele>318</ele>
        <time>2016-04-20T08:26:39Z</time>
      </trkpt>
      <trkpt lat="43.18609" lon="5.56129">
        <ele>320.5</ele>
        <time>2016-04-20T08:27:07Z</time>
      </trkpt>
      <trkpt lat="43.18609" lon="5.56128">
        <ele>320.6</ele>
        <time>2016-04-20T08:27:08Z</time>
      </trkpt>
      <trkpt lat="43.18644" lon="5.56126">
        <ele>318.8</ele>
        <time>2016-04-20T08:28:08Z</time>
      </trkpt>
      <trkpt lat="43.18644" lon="5.56126">
        <ele>319</ele>
        <time>2016-04-20T08:28:09Z</time>
      </trkpt>
      <trkpt lat="43.18662" lon="5.56128">
        <ele>319.7</ele>
        <time>2016-04-20T08:51:04Z</time>
      </trkpt>
      <trkpt lat="43.18695" lon="5.56116">
        <ele>327.1</ele>
        <time>2016-04-20T08:52:12Z</time>
      </trkpt>
      <trkpt lat="43.18696" lon="5.56116">
        <ele>327.3</ele>
        <time>2016-04-20T08:52:13Z</time>
      </trkpt>
      <trkpt lat="43.18722" lon="5.56087">
        <ele>336.3</ele>
        <time>2016-04-20T08:53:19Z</time>
      </trkpt>
      <trkpt lat="43.18722" lon="5.56087">
        <ele>336.7</ele>
        <time>2016-04-20T08:53:20Z</time>
      </trkpt>
      <trkpt lat="43.18745" lon="5.56053">
        <ele>340.7</ele>
        <time>2016-04-20T08:54:13Z</time>
      </trkpt>
      <trkpt lat="43.18762" lon="5.56044">
        <ele>346.6</ele>
        <time>2016-04-20T08:54:43Z</time>
      </trkpt>
      <trkpt lat="43.18762" lon="5.56044">
        <ele>346.7</ele>
        <time>2016-04-20T08:54:44Z</time>
      </trkpt>
      <trkpt lat="43.1875" lon="5.56026">
        <ele>356.2</ele>
        <time>2016-04-20T08:55:48Z</time>
      </trkpt>
      <trkpt lat="43.18768" lon="5.56019">
        <ele>357.3</ele>
        <time>2016-04-20T08:59:01Z</time>
      </trkpt>
      <trkpt lat="43.18792" lon="5.55994">
        <ele>351.3</ele>
        <time>2016-04-20T09:00:10Z</time>
      </trkpt>
      <trkpt lat="43.18792" lon="5.55993">
        <ele>351.1</ele>
        <time>2016-04-20T09:00:11Z</time>
      </trkpt>
      <trkpt lat="43.18807" lon="5.5595">
        <ele>340</ele>
        <time>2016-04-20T09:01:29Z</time>
      </trkpt>
      <trkpt lat="43.18808" lon="5.55949">
        <ele>340.2</ele>
        <time>2016-04-20T09:01:30Z</time>
      </trkpt>
      <trkpt lat="43.18818" lon="5.55904">
        <ele>328.6</ele>
        <time>2016-04-20T09:02:56Z</time>
      </trkpt>
      <trkpt lat="43.18818" lon="5.55903">
        <ele>328.1</ele>
        <time>2016-04-20T09:02:57Z</time>
      </trkpt>
      <trkpt lat="43.18826" lon="5.55856">
        <ele>318.5</ele>
        <time>2016-04-20T09:04:22Z</time>
      </trkpt>
      <trkpt lat="43.18827" lon="5.55855">
        <ele>319.1</ele>
        <time>2016-04-20T09:04:23Z</time>
      </trkpt>
      <trkpt lat="43.18846" lon="5.5582">
        <ele>314.7</ele>
        <time>2016-04-20T09:05:44Z</time>
      </trkpt>
      <trkpt lat="43.18847" lon="5.55819">
        <ele>314.6</ele>
        <time>2016-04-20T09:05:45Z</time>
      </trkpt>
      <trkpt lat="43.18876" lon="5.55794">
        <ele>318</ele>
        <time>2016-04-20T09:06:35Z</time>
      </trkpt>
      <trkpt lat="43.18893" lon="5.5579">
        <ele>320.5</ele>
        <time>2016-04-20T09:07:00Z</time>
      </trkpt>
      <trkpt lat="43.18893" lon="5.5579">
        <ele>320.7</ele>
        <time>2016-04-20T09:07:01Z</time>
      </trkpt>
      <trkpt lat="43.18927" lon="5.5579">
        <ele>327.1</ele>
        <time>2016-04-20T09:07:47Z</time>
      </trkpt>
      <trkpt lat="43.18945" lon="5.55786">
        <ele>328.1</ele>
        <time>2016-04-20T09:08:21Z</time>
      </trkpt>
      <trkpt lat="43.18946" lon="5.55786">
        <ele>328.2</ele>
        <time>2016-04-20T09:08:22Z</time>
      </trkpt>
      <trkpt lat="43.1898" lon="5.55784">
        <ele>336.7</ele>
        <time>2016-04-20T09:09:25Z</time>
      </trkpt>
      <trkpt lat="43.18981" lon="5.55784">
        <ele>336.8</ele>
        <time>2016-04-20T09:09:26Z</time>
      </trkpt>
      <trkpt lat="43.19012" lon="5.55764">
        <ele>343.8</ele>
        <time>2016-04-20T09:10:41Z</time>
      </trkpt>
      <trkpt lat="43.19013" lon="5.55764">
        <ele>343.8</ele>
        <time>2016-04-20T09:10:42Z</time>
      </trkpt>
      <trkpt lat="43.19013" lon="5.55715">
        <ele>332.7</ele>
        <time>2016-04-20T09:12:02Z</time>
      </trkpt>
      <trkpt lat="43.19013" lon="5.55715">
        <ele>332.6</ele>
        <time>2016-04-20T09:12:03Z</time>
      </trkpt>
      <trkpt lat="43.1902" lon="5.55668">
        <ele>319.2</ele>
        <time>2016-04-20T09:14:00Z</time>
      </trkpt>
      <trkpt lat="43.1902" lon="5.55668">
        <ele>319.2</ele>
        <time>2016-04-20T09:14:01Z</time>
      </trkpt>
      <trkpt lat="43.19035" lon="5.55654">
        <ele>313.8</ele>
        <time>2016-04-20T09:15:07Z</time>
      </trkpt>
      <trkpt lat="43.19043" lon="5.55608">
        <ele>298.8</ele>
        <time>2016-04-20T09:16:50Z</time>
      </trkpt>
      <trkpt lat="43.19043" lon="5.55607">
        <ele>298.7</ele>
        <time>2016-04-20T09:16:51Z</time>
      </trkpt>
      <trkpt lat="43.1905" lon="5.55563">
        <ele>302.2</ele>
        <time>2016-04-20T09:17:47Z</time>
      </trkpt>
      <trkpt lat="43.19066" lon="5.55552">
        <ele>304.2</ele>
        <time>2016-04-20T09:18:08Z</time>
      </trkpt>
      <trkpt lat="43.19066" lon="5.55551">
        <ele>304.2</ele>
        <time>2016-04-20T09:18:09Z</time>
      </trkpt>
      <trkpt lat="43.19097" lon="5.55532">
        <ele>303.7</ele>
        <time>2016-04-20T09:18:59Z</time>
      </trkpt>
      <trkpt lat="43.19112" lon="5.5552">
        <ele>302.5</ele>
        <time>2016-04-20T09:19:22Z</time>
      </trkpt>
      <trkpt lat="43.19113" lon="5.55519">
        <ele>302.7</ele>
        <time>2016-04-20T09:19:23Z</time>
      </trkpt>
      <trkpt lat="43.19143" lon="5.55518">
        <ele>312.2</ele>
        <time>2016-04-20T09:20:56Z</time>
      </trkpt>
      <trkpt lat="43.19143" lon="5.55517">
        <ele>312.3</ele>
        <time>2016-04-20T09:20:57Z</time>
      </trkpt>
      <trkpt lat="43.19176" lon="5.555">
        <ele>325.8</ele>
        <time>2016-04-20T09:22:30Z</time>
      </trkpt>
      <trkpt lat="43.19176" lon="5.555">
        <ele>326.1</ele>
        <time>2016-04-20T09:22:31Z</time>
      </trkpt>
      <trkpt lat="43.19191" lon="5.55486">
        <ele>332.3</ele>
        <time>2016-04-20T09:23:32Z</time>
      </trkpt>
      <trkpt lat="43.19225" lon="5.55474">
        <ele>346.6</ele>
        <time>2016-04-20T09:24:55Z</time>
      </trkpt>
      <trkpt lat="43.19226" lon="5.55473">
        <ele>346.8</ele>
        <time>2016-04-20T09:24:56Z</time>
      </trkpt>
      <trkpt lat="43.19254" lon="5.55447">
        <ele>354.3</ele>
        <time>2016-04-20T09:26:06Z</time>
      </trkpt>
      <trkpt lat="43.19255" lon="5.55446">
        <ele>354.3</ele>
        <time>2016-04-20T09:26:07Z</time>
      </trkpt>
      <trkpt lat="43.19282" lon="5.55415">
        <ele>352.7</ele>
        <time>2016-04-20T09:27:02Z</time>
      </trkpt>
      <trkpt lat="43.19294" lon="5.55398">
        <ele>354.7</ele>
        <time>2016-04-20T09:27:31Z</time>
      </trkpt>
      <trkpt lat="43.19295" lon="5.55398">
        <ele>354.7</ele>
        <time>2016-04-20T09:27:32Z</time>
      </trkpt>
      <trkpt lat="43.1932" lon="5.55365">
        <ele>355.2</ele>
        <time>2016-04-20T09:28:23Z</time>
      </trkpt>
      <trkpt lat="43.19337" lon="5.5536">
        <ele>357.1</ele>
        <time>2016-04-20T09:28:42Z</time>
      </trkpt>
      <trkpt lat="43.19338" lon="5.5536">
        <ele>357</ele>
        <time>2016-04-20T09:28:43Z</time>
      </trkpt>
      <trkpt lat="43.19372" lon="5.55363">
        <ele>360.3</ele>
        <time>2016-04-20T09:29:32Z</time>
      </trkpt>
      <trkpt lat="43.19389" lon="5.55356">
        <ele>362.5</ele>
        <time>2016-04-20T09:30:07Z</time>
      </trkpt>
      <trkpt lat="43.1939" lon="5.55355">
        <ele>362.3</ele>
        <time>2016-04-20T09:30:08Z</time>
      </trkpt>
      <trkpt lat="43.19422" lon="5.55372">
        <ele>361.3</ele>
        <time>2016-04-20T09:30:59Z</time>
      </trkpt>
      <trkpt lat="43.19438" lon="5.55383">
        <ele>360.3</ele>
        <time>2016-04-20T09:31:19Z</time>
      </trkpt>
      <trkpt lat="43.19439" lon="5.55383">
        <ele>360.2</ele>
        <time>2016-04-20T09:31:20Z</time>
      </trkpt>
      <trkpt lat="43.19471" lon="5.55369">
        <ele>357.3</ele>
        <time>2016-04-20T09:32:16Z</time>
      </trkpt>
      <trkpt lat="43.19482" lon="5.5535">
        <ele>353.7</ele>
        <time>2016-04-20T09:32:58Z</time>
      </trkpt>
      <trkpt lat="43.19483" lon="5.5535">
        <ele>353.2</ele>
        <time>2016-04-20T09:32:59Z</time>
      </trkpt>
      <trkpt lat="43.19498" lon="5.55307">
        <ele>340.2</ele>
        <time>2016-04-20T09:34:02Z</time>
      </trkpt>
      <trkpt lat="43.19498" lon="5.55306">
        <ele>340.1</ele>
        <time>2016-04-20T09:34:03Z</time>
      </trkpt>
      <trkpt lat="43.19517" lon="5.55267">
        <ele>331</ele>
        <time>2016-04-20T09:34:59Z</time>
      </trkpt>
      <trkpt lat="43.19527" lon="5.55247">
        <ele>328.8</ele>
        <time>2016-04-20T09:35:27Z</time>
      </trkpt>
      <trkpt lat="43.19528" lon="5.55247">
        <ele>328.8</ele>
        <time>2016-04-20T09:35:28Z</time>
      </trkpt>
      <trkpt lat="43.19544" lon="5.55258">
        <ele>329.7</ele>
        <time>2016-04-20T09:38:01Z</time>
      </trkpt>
      <trkpt lat="43.19573" lon="5.55279">
        <ele>325.7</ele>
        <time>2016-04-20T09:38:44Z</time>
      </trkpt>
      <trkpt lat="43.19591" lon="5.55281">
        <ele>327.3</ele>
        <time>2016-04-20T09:39:07Z</time>
      </trkpt>
      <trkpt lat="43.19592" lon="5.55281">
        <ele>327.5</ele>
        <time>2016-04-20T09:39:08Z</time>
      </trkpt>
      <trkpt lat="43.19624" lon="5.55295">
        <ele>326.8</ele>
        <time>2016-04-20T09:39:44Z</time>
      </trkpt>
      <trkpt lat="43.19642" lon="5.55299">
        <ele>323.1</ele>
        <time>2016-04-20T09:40:10Z</time>
      </trkpt>
      <trkpt lat="43.19643" lon="5.55299">
        <ele>323.1</ele>
        <time>2016-04-20T09:40:11Z</time>
      </trkpt>
      <trkpt lat="43.19675" lon="5.55289">
        <ele>315.1</ele>
        <time>2016-04-20T09:41:05Z</time>
      </trkpt>
      <trkpt lat="43.1969" lon="5.55277">
        <ele>313.7</ele>
        <time>2016-04-20T09:41:29Z</time>
      </trkpt>
      <trkpt lat="43.19691" lon="5.55276">
        <ele>313.7</ele>
        <time>2016-04-20T09:41:30Z</time>
      </trkpt>
      <trkpt lat="43.19714" lon="5.55243">
        <ele>315.5</ele>
        <time>2016-04-20T09:42:08Z</time>
      </trkpt>
      <trkpt lat="43.19729" lon="5.5523">
        <ele>316.3</ele>
        <time>2016-04-20T09:42:32Z</time>
      </trkpt>
      <trkpt lat="43.1973" lon="5.5523">
        <ele>316.3</ele>
        <time>2016-04-20T09:42:33Z</time>
      </trkpt>
      <trkpt lat="43.19761" lon="5.55211">
        <ele>320.8</ele>
        <time>2016-04-20T09:43:29Z</time>
      </trkpt>
      <trkpt lat="43.19776" lon="5.55198">
        <ele>325.7</ele>
        <time>2016-04-20T09:43:57Z</time>
      </trkpt>
      <trkpt lat="43.19777" lon="5.55198">
        <ele>325.8</ele>
        <time>2016-04-20T09:43:58Z</time>
      </trkpt>
      <trkpt lat="43.19807" lon="5.55195">
        <ele>333.2</ele>
        <time>2016-04-20T09:45:58Z</time>
      </trkpt>
      <trkpt lat="43.19808" lon="5.55196">
        <ele>333.3</ele>
        <time>2016-04-20T09:45:59Z</time>
      </trkpt>
      <trkpt lat="43.1984" lon="5.55212">
        <ele>335.3</ele>
        <time>2016-04-20T09:46:40Z</time>
      </trkpt>
      <trkpt lat="43.19857" lon="5.55217">
        <ele>334.7</ele>
        <time>2016-04-20T09:47:01Z</time>
      </trkpt>
      <trkpt lat="43.19858" lon="5.55217">
        <ele>334.8</ele>
        <time>2016-04-20T09:47:02Z</time>
      </trkpt>
      <trkpt lat="43.19891" lon="5.55219">
        <ele>334.6</ele>
        <time>2016-04-20T09:47:40Z</time>
      </trkpt>
      <trkpt lat="43.19909" lon="5.55219">
        <ele>333.7</ele>
        <time>2016-04-20T09:48:04Z</time>
      </trkpt>
      <trkpt lat="43.1991" lon="5.55219">
        <ele>333.6</ele>
        <time>2016-04-20T09:48:05Z</time>
      </trkpt>
      <trkpt lat="43.19944" lon="5.55227">
        <ele>332.1</ele>
        <time>2016-04-20T09:48:44Z</time>
      </trkpt>
      <trkpt lat="43.1996" lon="5.55236">
        <ele>330.2</ele>
        <time>2016-04-20T09:49:06Z</time>
      </trkpt>
      <trkpt lat="43.19961" lon="5.55237">
        <ele>330</ele>
        <time>2016-04-20T09:49:07Z</time>
      </trkpt>
      <trkpt lat="43.19977" lon="5.55246">
        <ele>329</ele>
        <time>2016-04-20T09:52:03Z</time>
      </trkpt>
      <trkpt lat="43.2001" lon="5.55233">
        <ele>330</ele>
        <time>2016-04-20T09:52:38Z</time>
      </trkpt>
      <trkpt lat="43.20028" lon="5.55229">
        <ele>330.8</ele>
        <time>2016-04-20T09:52:56Z</time>
      </trkpt>
      <trkpt lat="43.20045" lon="5.55226">
        <ele>331</ele>
        <time>2016-04-20T09:53:22Z</time>
      </trkpt>
      <trkpt lat="43.20046" lon="5.55225">
        <ele>330.8</ele>
        <time>2016-04-20T09:53:23Z</time>
      </trkpt>
      <trkpt lat="43.20077" lon="5.55242">
        <ele>326.7</ele>
        <time>2016-04-20T09:54:51Z</time>
      </trkpt>
      <trkpt lat="43.20077" lon="5.55244">
        <ele>326.7</ele>
        <time>2016-04-20T09:54:52Z</time>
      </trkpt>
      <trkpt lat="43.20091" lon="5.55258">
        <ele>322.8</ele>
        <time>2016-04-20T11:03:59Z</time>
      </trkpt>
      <trkpt lat="43.20107" lon="5.55297">
        <ele>313.2</ele>
        <time>2016-04-20T11:05:16Z</time>
      </trkpt>
      <trkpt lat="43.20107" lon="5.55297">
        <ele>313.2</ele>
        <time>2016-04-20T11:05:17Z</time>
      </trkpt>
      <trkpt lat="43.20123" lon="5.55338">
        <ele>306.6</ele>
        <time>2016-04-20T11:07:23Z</time>
      </trkpt>
      <trkpt lat="43.20123" lon="5.55339">
        <ele>306.6</ele>
        <time>2016-04-20T11:07:24Z</time>
      </trkpt>
      <trkpt lat="43.20144" lon="5.55376">
        <ele>312.7</ele>
        <time>2016-04-20T11:08:06Z</time>
      </trkpt>
      <trkpt lat="43.2015" lon="5.55398">
        <ele>314.1</ele>
        <time>2016-04-20T11:08:30Z</time>
      </trkpt>
      <trkpt lat="43.20151" lon="5.55399">
        <ele>314.2</ele>
        <time>2016-04-20T11:08:31Z</time>
      </trkpt>
      <trkpt lat="43.20157" lon="5.55421">
        <ele>313</ele>
        <time>2016-04-20T11:10:33Z</time>
      </trkpt>
      <trkpt lat="43.2018" lon="5.55455">
        <ele>308.2</ele>
        <time>2016-04-20T11:11:35Z</time>
      </trkpt>
      <trkpt lat="43.20181" lon="5.55457">
        <ele>308.3</ele>
        <time>2016-04-20T11:11:36Z</time>
      </trkpt>
      <trkpt lat="43.20199" lon="5.55495">
        <ele>306.3</ele>
        <time>2016-04-20T11:12:08Z</time>
      </trkpt>
      <trkpt lat="43.20209" lon="5.55514">
        <ele>309</ele>
        <time>2016-04-20T11:12:22Z</time>
      </trkpt>
      <trkpt lat="43.20224" lon="5.55528">
        <ele>312.8</ele>
        <time>2016-04-20T11:13:12Z</time>
      </trkpt>
      <trkpt lat="43.20224" lon="5.55529">
        <ele>312.7</ele>
        <time>2016-04-20T11:13:13Z</time>
      </trkpt>
      <trkpt lat="43.20246" lon="5.55565">
        <ele>307.6</ele>
        <time>2016-04-20T11:13:55Z</time>
      </trkpt>
      <trkpt lat="43.20251" lon="5.55589">
        <ele>305.8</ele>
        <time>2016-04-20T11:14:14Z</time>
      </trkpt>
      <trkpt lat="43.20251" lon="5.5559">
        <ele>305.7</ele>
        <time>2016-04-20T11:14:15Z</time>
      </trkpt>
      <trkpt lat="43.20257" lon="5.55636">
        <ele>305.8</ele>
        <time>2016-04-20T11:14:49Z</time>
      </trkpt>
      <trkpt lat="43.20266" lon="5.55657">
        <ele>304.6</ele>
        <time>2016-04-20T11:15:08Z</time>
      </trkpt>
      <trkpt lat="43.20279" lon="5.55673">
        <ele>305.3</ele>
        <time>2016-04-20T11:15:26Z</time>
      </trkpt>
      <trkpt lat="43.20279" lon="5.55674">
        <ele>305.5</ele>
        <time>2016-04-20T11:15:27Z</time>
      </trkpt>
      <trkpt lat="43.20308" lon="5.557">
        <ele>307.6</ele>
        <time>2016-04-20T11:16:10Z</time>
      </trkpt>
      <trkpt lat="43.20324" lon="5.55711">
        <ele>307.2</ele>
        <time>2016-04-20T11:16:28Z</time>
      </trkpt>
      <trkpt lat="43.20325" lon="5.55712">
        <ele>307.2</ele>
        <time>2016-04-20T11:16:29Z</time>
      </trkpt>
      <trkpt lat="43.20358" lon="5.55721">
        <ele>303.1</ele>
        <time>2016-04-20T11:17:03Z</time>
      </trkpt>
      <trkpt lat="43.20374" lon="5.55729">
        <ele>305.8</ele>
        <time>2016-04-20T11:17:19Z</time>
      </trkpt>
      <trkpt lat="43.20388" lon="5.55744">
        <ele>307.1</ele>
        <time>2016-04-20T11:17:36Z</time>
      </trkpt>
      <trkpt lat="43.20389" lon="5.55745">
        <ele>307.1</ele>
        <time>2016-04-20T11:17:37Z</time>
      </trkpt>
      <trkpt lat="43.20414" lon="5.55777">
        <ele>305.1</ele>
        <time>2016-04-20T11:18:17Z</time>
      </trkpt>
      <trkpt lat="43.20427" lon="5.55793">
        <ele>303.1</ele>
        <time>2016-04-20T11:18:38Z</time>
      </trkpt>
      <trkpt lat="43.20428" lon="5.55793">
        <ele>303</ele>
        <time>2016-04-20T11:18:39Z</time>
      </trkpt>
      <trkpt lat="43.20451" lon="5.55827">
        <ele>301.7</ele>
        <time>2016-04-20T11:19:31Z</time>
      </trkpt>
      <trkpt lat="43.20462" lon="5.55845">
        <ele>298.7</ele>
        <time>2016-04-20T11:19:48Z</time>
      </trkpt>
      <trkpt lat="43.20463" lon="5.55846">
        <ele>298.6</ele>
        <time>2016-04-20T11:19:49Z</time>
      </trkpt>
      <trkpt lat="43.20488" lon="5.55877">
        <ele>290.3</ele>
        <time>2016-04-20T11:20:27Z</time>
      </trkpt>
      <trkpt lat="43.20504" lon="5.55888">
        <ele>287</ele>
        <time>2016-04-20T11:20:48Z</time>
      </trkpt>
      <trkpt lat="43.20519" lon="5.55901">
        <ele>284.2</ele>
        <time>2016-04-20T11:21:07Z</time>
      </trkpt>
      <trkpt lat="43.20519" lon="5.55901">
        <ele>284.2</ele>
        <time>2016-04-20T11:21:08Z</time>
      </trkpt>
      <trkpt lat="43.20549" lon="5.55925">
        <ele>282</ele>
        <time>2016-04-20T11:21:44Z</time>
      </trkpt>
      <trkpt lat="43.20565" lon="5.55936">
        <ele>275.6</ele>
        <time>2016-04-20T11:22:05Z</time>
      </trkpt>
      <trkpt lat="43.2058" lon="5.55947">
        <ele>274</ele>
        <time>2016-04-20T11:22:28Z</time>
      </trkpt>
      <trkpt lat="43.20581" lon="5.55948">
        <ele>273.5</ele>
        <time>2016-04-20T11:22:29Z</time>
      </trkpt>
      <trkpt lat="43.20611" lon="5.5597">
        <ele>270.3</ele>
        <time>2016-04-20T11:23:15Z</time>
      </trkpt>
      <trkpt lat="43.20626" lon="5.55984">
        <ele>269.1</ele>
        <time>2016-04-20T11:23:41Z</time>
      </trkpt>
      <trkpt lat="43.20626" lon="5.55984">
        <ele>268.7</ele>
        <time>2016-04-20T11:23:42Z</time>
      </trkpt>
      <trkpt lat="43.20644" lon="5.56023">
        <ele>261.6</ele>
        <time>2016-04-20T11:24:31Z</time>
      </trkpt>
      <trkpt lat="43.20648" lon="5.56047">
        <ele>254.1</ele>
        <time>2016-04-20T11:24:58Z</time>
      </trkpt>
      <trkpt lat="43.20648" lon="5.56048">
        <ele>254.1</ele>
        <time>2016-04-20T11:24:59Z</time>
      </trkpt>
      <trkpt lat="43.20655" lon="5.56095">
        <ele>248</ele>
        <time>2016-04-20T11:25:49Z</time>
      </trkpt>
      <trkpt lat="43.20655" lon="5.56119">
        <ele>245.8</ele>
        <time>2016-04-20T11:26:12Z</time>
      </trkpt>
      <trkpt lat="43.20655" lon="5.5612">
        <ele>246.1</ele>
        <time>2016-04-20T11:26:13Z</time>
      </trkpt>
      <trkpt lat="43.2066" lon="5.56167">
        <ele>239.3</ele>
        <time>2016-04-20T11:27:04Z</time>
      </trkpt>
      <trkpt lat="43.20665" lon="5.56191">
        <ele>231.8</ele>
        <time>2016-04-20T11:28:17Z</time>
      </trkpt>
      <trkpt lat="43.20665" lon="5.56191">
        <ele>231.1</ele>
        <time>2016-04-20T11:28:18Z</time>
      </trkpt>
      <trkpt lat="43.20672" lon="5.56168">
        <ele>236.3</ele>
        <time>2016-04-20T11:29:27Z</time>
      </trkpt>
      <trkpt lat="43.2068" lon="5.56123">
        <ele>231</ele>
        <time>2016-04-20T11:30:04Z</time>
      </trkpt>
      <trkpt lat="43.20681" lon="5.56098">
        <ele>230.1</ele>
        <time>2016-04-20T11:30:22Z</time>
      </trkpt>
      <trkpt lat="43.20686" lon="5.56076">
        <ele>227.8</ele>
        <time>2016-04-20T11:30:43Z</time>
      </trkpt>
      <trkpt lat="43.20686" lon="5.56075">
        <ele>227.8</ele>
        <time>2016-04-20T11:30:44Z</time>
      </trkpt>
      <trkpt lat="43.20695" lon="5.56031">
        <ele>226.3</ele>
        <time>2016-04-20T11:31:51Z</time>
      </trkpt>
      <trkpt lat="43.20695" lon="5.5603">
        <ele>226.6</ele>
        <time>2016-04-20T11:31:52Z</time>
      </trkpt>
      <trkpt lat="43.20713" lon="5.56036">
        <ele>217.6</ele>
        <time>2016-04-20T11:33:10Z</time>
      </trkpt>
      <trkpt lat="43.2073" lon="5.56078">
        <ele>214.3</ele>
        <time>2016-04-20T11:34:02Z</time>
      </trkpt>
      <trkpt lat="43.20736" lon="5.561">
        <ele>212.8</ele>
        <time>2016-04-20T11:34:27Z</time>
      </trkpt>
      <trkpt lat="43.20737" lon="5.56101">
        <ele>212.8</ele>
        <time>2016-04-20T11:34:28Z</time>
      </trkpt>
      <trkpt lat="43.2076" lon="5.56134">
        <ele>212.5</ele>
        <time>2016-04-20T11:35:16Z</time>
      </trkpt>
      <trkpt lat="43.2077" lon="5.56153">
        <ele>215.6</ele>
        <time>2016-04-20T11:35:32Z</time>
      </trkpt>
      <trkpt lat="43.20771" lon="5.56154">
        <ele>215.1</ele>
        <time>2016-04-20T11:35:33Z</time>
      </trkpt>
      <trkpt lat="43.20786" lon="5.56197">
        <ele>214.1</ele>
        <time>2016-04-20T11:36:10Z</time>
      </trkpt>
      <trkpt lat="43.20794" lon="5.56218">
        <ele>218.8</ele>
        <time>2016-04-20T11:36:26Z</time>
      </trkpt>
      <trkpt lat="43.20801" lon="5.5624">
        <ele>221.5</ele>
        <time>2016-04-20T11:36:44Z</time>
      </trkpt>
      <trkpt lat="43.20802" lon="5.56241">
        <ele>221.8</ele>
        <time>2016-04-20T11:36:45Z</time>
      </trkpt>
      <trkpt lat="43.20821" lon="5.56281">
        <ele>219.5</ele>
        <time>2016-04-20T11:37:20Z</time>
      </trkpt>
      <trkpt lat="43.20829" lon="5.56303">
        <ele>224.5</ele>
        <time>2016-04-20T11:37:38Z</time>
      </trkpt>
      <trkpt lat="43.20833" lon="5.56326">
        <ele>229.8</ele>
        <time>2016-04-20T11:38:01Z</time>
      </trkpt>
      <trkpt lat="43.20833" lon="5.56328">
        <ele>230.1</ele>
        <time>2016-04-20T11:38:02Z</time>
      </trkpt>
      <trkpt lat="43.20842" lon="5.56373">
        <ele>236.8</ele>
        <time>2016-04-20T11:38:41Z</time>
      </trkpt>
      <trkpt lat="43.20847" lon="5.56396">
        <ele>236</ele>
        <time>2016-04-20T11:39:00Z</time>
      </trkpt>
      <trkpt lat="43.20855" lon="5.56417">
        <ele>239.3</ele>
        <time>2016-04-20T11:39:20Z</time>
      </trkpt>
      <trkpt lat="43.20856" lon="5.56418">
        <ele>239.5</ele>
        <time>2016-04-20T11:39:21Z</time>
      </trkpt>
      <trkpt lat="43.20885" lon="5.5644">
        <ele>238.8</ele>
        <time>2016-04-20T11:39:56Z</time>
      </trkpt>
      <trkpt lat="43.20902" lon="5.56449">
        <ele>242.8</ele>
        <time>2016-04-20T11:40:14Z</time>
      </trkpt>
      <trkpt lat="43.20919" lon="5.56457">
        <ele>244.1</ele>
        <time>2016-04-20T11:40:34Z</time>
      </trkpt>
      <trkpt lat="43.20919" lon="5.56458">
        <ele>244.1</ele>
        <time>2016-04-20T11:40:35Z</time>
      </trkpt>
      <trkpt lat="43.2095" lon="5.56477">
        <ele>248.6</ele>
        <time>2016-04-20T11:41:15Z</time>
      </trkpt>
      <trkpt lat="43.20962" lon="5.56494">
        <ele>252.5</ele>
        <time>2016-04-20T11:41:33Z</time>
      </trkpt>
      <trkpt lat="43.20972" lon="5.56513">
        <ele>255.3</ele>
        <time>2016-04-20T11:41:50Z</time>
      </trkpt>
      <trkpt lat="43.20972" lon="5.56515">
        <ele>255.8</ele>
        <time>2016-04-20T11:41:51Z</time>
      </trkpt>
      <trkpt lat="43.20982" lon="5.56558">
        <ele>253.6</ele>
        <time>2016-04-20T11:42:22Z</time>
      </trkpt>
      <trkpt lat="43.20986" lon="5.56582">
        <ele>254.5</ele>
        <time>2016-04-20T11:42:39Z</time>
      </trkpt>
      <trkpt lat="43.20986" lon="5.56606">
        <ele>252.3</ele>
        <time>2016-04-20T11:42:56Z</time>
      </trkpt>
      <trkpt lat="43.20986" lon="5.56607">
        <ele>252.3</ele>
        <time>2016-04-20T11:42:57Z</time>
      </trkpt>
      <trkpt lat="43.20989" lon="5.56654">
        <ele>258.7</ele>
        <time>2016-04-20T11:43:49Z</time>
      </trkpt>
      <trkpt lat="43.20995" lon="5.56676">
        <ele>256.2</ele>
        <time>2016-04-20T11:46:39Z</time>
      </trkpt>
      <trkpt lat="43.20996" lon="5.56677">
        <ele>256.3</ele>
        <time>2016-04-20T11:46:40Z</time>
      </trkpt>
      <trkpt lat="43.20987" lon="5.56723">
        <ele>251.5</ele>
        <time>2016-04-20T11:47:23Z</time>
      </trkpt>
      <trkpt lat="43.20977" lon="5.56743">
        <ele>246.5</ele>
        <time>2016-04-20T11:48:32Z</time>
      </trkpt>
      <trkpt lat="43.20977" lon="5.56744">
        <ele>246.3</ele>
        <time>2016-04-20T11:48:33Z</time>
      </trkpt>
      <trkpt lat="43.20959" lon="5.56743">
        <ele>241</ele>
        <time>2016-04-20T11:49:42Z</time>
      </trkpt>
      <trkpt lat="43.20943" lon="5.56753">
        <ele>230.5</ele>
        <time>2016-04-20T11:51:36Z</time>
      </trkpt>
      <trkpt lat="43.20926" lon="5.56794">
        <ele>224.1</ele>
        <time>2016-04-20T11:53:07Z</time>
      </trkpt>
      <trkpt lat="43.20926" lon="5.56795">
        <ele>224</ele>
        <time>2016-04-20T11:53:08Z</time>
      </trkpt>
      <trkpt lat="43.20932" lon="5.56819">
        <ele>218.3</ele>
        <time>2016-04-20T11:54:30Z</time>
      </trkpt>
      <trkpt lat="43.20948" lon="5.5683">
        <ele>206.3</ele>
        <time>2016-04-20T11:55:31Z</time>
      </trkpt>
      <trkpt lat="43.20958" lon="5.5685">
        <ele>209.8</ele>
        <time>2016-04-20T11:58:47Z</time>
      </trkpt>
      <trkpt lat="43.20952" lon="5.56873">
        <ele>197.3</ele>
        <time>2016-04-20T12:00:41Z</time>
      </trkpt>
      <trkpt lat="43.20955" lon="5.56898">
        <ele>190.8</ele>
        <time>2016-04-20T12:03:43Z</time>
      </trkpt>
      <trkpt lat="43.20951" lon="5.56922">
        <ele>179</ele>
        <time>2016-04-20T12:06:28Z</time>
      </trkpt>
      <trkpt lat="43.20957" lon="5.56945">
        <ele>168</ele>
        <time>2016-04-20T12:08:27Z</time>
      </trkpt>
      <trkpt lat="43.2094" lon="5.56956">
        <ele>180</ele>
        <time>2016-04-20T12:09:37Z</time>
      </trkpt>
      <trkpt lat="43.20912" lon="5.56982">
        <ele>171.6</ele>
        <time>2016-04-20T12:13:41Z</time>
      </trkpt>
      <trkpt lat="43.20911" lon="5.56982">
        <ele>171.5</ele>
        <time>2016-04-20T12:13:42Z</time>
      </trkpt>
      <trkpt lat="43.20882" lon="5.57007">
        <ele>159</ele>
        <time>2016-04-20T12:14:35Z</time>
      </trkpt>
      <trkpt lat="43.20865" lon="5.57014">
        <ele>155.3</ele>
        <time>2016-04-20T12:14:59Z</time>
      </trkpt>
      <trkpt lat="43.20864" lon="5.57014">
        <ele>155.6</ele>
        <time>2016-04-20T12:15:00Z</time>
      </trkpt>
      <trkpt lat="43.2083" lon="5.57012">
        <ele>152.6</ele>
        <time>2016-04-20T12:15:34Z</time>
      </trkpt>
      <trkpt lat="43.20813" lon="5.5701">
        <ele>154.8</ele>
        <time>2016-04-20T12:15:51Z</time>
      </trkpt>
      <trkpt lat="43.20811" lon="5.57033">
        <ele>149.8</ele>
        <time>2016-04-20T12:16:13Z</time>
      </trkpt>
      <trkpt lat="43.20811" lon="5.57034">
        <ele>149</ele>
        <time>2016-04-20T12:16:14Z</time>
      </trkpt>
      <trkpt lat="43.20813" lon="5.57081">
        <ele>140</ele>
        <time>2016-04-20T12:16:49Z</time>
      </trkpt>
      <trkpt lat="43.20809" lon="5.57105">
        <ele>152.3</ele>
        <time>2016-04-20T12:17:06Z</time>
      </trkpt>
      <trkpt lat="43.20802" lon="5.57126">
        <ele>139.5</ele>
        <time>2016-04-20T12:17:22Z</time>
      </trkpt>
      <trkpt lat="43.20802" lon="5.57128">
        <ele>140.1</ele>
        <time>2016-04-20T12:17:23Z</time>
      </trkpt>
      <trkpt lat="43.20786" lon="5.57167">
        <ele>134.6</ele>
        <time>2016-04-20T12:17:54Z</time>
      </trkpt>
      <trkpt lat="43.20775" lon="5.57185">
        <ele>136.1</ele>
        <time>2016-04-20T12:18:09Z</time>
      </trkpt>
      <trkpt lat="43.20763" lon="5.57203">
        <ele>136.1</ele>
        <time>2016-04-20T12:18:23Z</time>
      </trkpt>
      <trkpt lat="43.20762" lon="5.57204">
        <ele>136.3</ele>
        <time>2016-04-20T12:18:24Z</time>
      </trkpt>
      <trkpt lat="43.20741" lon="5.57239">
        <ele>138.1</ele>
        <time>2016-04-20T12:18:52Z</time>
      </trkpt>
      <trkpt lat="43.20735" lon="5.57262">
        <ele>139.6</ele>
        <time>2016-04-20T12:19:08Z</time>
      </trkpt>
      <trkpt lat="43.20731" lon="5.57286">
        <ele>141.6</ele>
        <time>2016-04-20T12:19:22Z</time>
      </trkpt>
      <trkpt lat="43.2073" lon="5.5731">
        <ele>139.5</ele>
        <time>2016-04-20T12:19:38Z</time>
      </trkpt>
      <trkpt lat="43.2073" lon="5.57312">
        <ele>139.3</ele>
        <time>2016-04-20T12:19:39Z</time>
      </trkpt>
      <trkpt lat="43.20728" lon="5.57357">
        <ele>135.1</ele>
        <time>2016-04-20T12:20:11Z</time>
      </trkpt>
      <trkpt lat="43.20726" lon="5.57381">
        <ele>132.1</ele>
        <time>2016-04-20T12:20:28Z</time>
      </trkpt>
      <trkpt lat="43.20726" lon="5.57404">
        <ele>131.1</ele>
        <time>2016-04-20T12:20:44Z</time>
      </trkpt>
      <trkpt lat="43.20726" lon="5.57406">
        <ele>131</ele>
        <time>2016-04-20T12:20:45Z</time>
      </trkpt>
      <trkpt lat="43.20729" lon="5.57452">
        <ele>129.1</ele>
        <time>2016-04-20T12:21:16Z</time>
      </trkpt>
      <trkpt lat="43.20732" lon="5.57476">
        <ele>128.3</ele>
        <time>2016-04-20T12:21:33Z</time>
      </trkpt>
      <trkpt lat="43.20727" lon="5.57499">
        <ele>121.5</ele>
        <time>2016-04-20T12:21:51Z</time>
      </trkpt>
      <trkpt lat="43.20727" lon="5.57501">
        <ele>121.4</ele>
        <time>2016-04-20T12:21:52Z</time>
      </trkpt>
      <trkpt lat="43.20707" lon="5.57538">
        <ele>119.1</ele>
        <time>2016-04-20T12:22:23Z</time>
      </trkpt>
      <trkpt lat="43.20699" lon="5.57559">
        <ele>118.9</ele>
        <time>2016-04-20T12:22:39Z</time>
      </trkpt>
      <trkpt lat="43.20691" lon="5.57581">
        <ele>130</ele>
        <time>2016-04-20T12:25:36Z</time>
      </trkpt>
      <trkpt lat="43.2069" lon="5.57582">
        <ele>129.5</ele>
        <time>2016-04-20T12:25:37Z</time>
      </trkpt>
      <trkpt lat="43.20665" lon="5.57613">
        <ele>115.5</ele>
        <time>2016-04-20T12:26:10Z</time>
      </trkpt>
      <trkpt lat="43.20654" lon="5.57631">
        <ele>111.9</ele>
        <time>2016-04-20T12:26:27Z</time>
      </trkpt>
      <trkpt lat="43.20646" lon="5.57651">
        <ele>108</ele>
        <time>2016-04-20T12:26:42Z</time>
      </trkpt>
      <trkpt lat="43.20645" lon="5.57653">
        <ele>108.3</ele>
        <time>2016-04-20T12:26:43Z</time>
      </trkpt>
      <trkpt lat="43.2065" lon="5.57698">
        <ele>110.6</ele>
        <time>2016-04-20T12:27:14Z</time>
      </trkpt>
      <trkpt lat="43.20656" lon="5.57721">
        <ele>117.3</ele>
        <time>2016-04-20T12:27:28Z</time>
      </trkpt>
      <trkpt lat="43.20657" lon="5.57745">
        <ele>115</ele>
        <time>2016-04-20T12:27:46Z</time>
      </trkpt>
      <trkpt lat="43.20657" lon="5.57746">
        <ele>114.8</ele>
        <time>2016-04-20T12:27:47Z</time>
      </trkpt>
      <trkpt lat="43.20648" lon="5.57792">
        <ele>109</ele>
        <time>2016-04-20T12:28:20Z</time>
      </trkpt>
      <trkpt lat="43.20647" lon="5.57815">
        <ele>104.4</ele>
        <time>2016-04-20T12:28:36Z</time>
      </trkpt>
      <trkpt lat="43.20648" lon="5.57838">
        <ele>112.5</ele>
        <time>2016-04-20T12:28:49Z</time>
      </trkpt>
      <trkpt lat="43.20649" lon="5.5784">
        <ele>113.9</ele>
        <time>2016-04-20T12:28:50Z</time>
      </trkpt>
      <trkpt lat="43.20664" lon="5.57881">
        <ele>115.5</ele>
        <time>2016-04-20T12:29:19Z</time>
      </trkpt>
      <trkpt lat="43.20674" lon="5.57901">
        <ele>114.3</ele>
        <time>2016-04-20T12:29:35Z</time>
      </trkpt>
      <trkpt lat="43.20687" lon="5.57917">
        <ele>107.5</ele>
        <time>2016-04-20T12:29:52Z</time>
      </trkpt>
      <trkpt lat="43.20688" lon="5.57918">
        <ele>107.8</ele>
        <time>2016-04-20T12:29:53Z</time>
      </trkpt>
      <trkpt lat="43.20718" lon="5.57933">
        <ele>112.3</ele>
        <time>2016-04-20T12:30:20Z</time>
      </trkpt>
      <trkpt lat="43.20735" lon="5.57942">
        <ele>114.9</ele>
        <time>2016-04-20T12:30:36Z</time>
      </trkpt>
      <trkpt lat="43.2074" lon="5.57965">
        <ele>103.8</ele>
        <time>2016-04-20T12:30:54Z</time>
      </trkpt>
      <trkpt lat="43.2074" lon="5.57966">
        <ele>104</ele>
        <time>2016-04-20T12:30:55Z</time>
      </trkpt>
      <trkpt lat="43.20738" lon="5.58012">
        <ele>98.3</ele>
        <time>2016-04-20T12:31:26Z</time>
      </trkpt>
      <trkpt lat="43.2074" lon="5.58035">
        <ele>105.1</ele>
        <time>2016-04-20T12:31:40Z</time>
      </trkpt>
      <trkpt lat="43.20743" lon="5.58059">
        <ele>108.3</ele>
        <time>2016-04-20T12:31:57Z</time>
      </trkpt>
      <trkpt lat="43.20744" lon="5.5806">
        <ele>108.3</ele>
        <time>2016-04-20T12:31:58Z</time>
      </trkpt>
      <trkpt lat="43.20746" lon="5.58106">
        <ele>110.9</ele>
        <time>2016-04-20T12:32:31Z</time>
      </trkpt>
      <trkpt lat="43.20743" lon="5.5813">
        <ele>112</ele>
        <time>2016-04-20T12:32:46Z</time>
      </trkpt>
      <trkpt lat="43.20742" lon="5.58153">
        <ele>113.1</ele>
        <time>2016-04-20T12:33:02Z</time>
      </trkpt>
      <trkpt lat="43.20742" lon="5.58155">
        <ele>112.5</ele>
        <time>2016-04-20T12:33:03Z</time>
      </trkpt>
      <trkpt lat="43.20728" lon="5.58196">
        <ele>101.1</ele>
        <time>2016-04-20T12:33:39Z</time>
      </trkpt>
      <trkpt lat="43.20716" lon="5.58215">
        <ele>106.8</ele>
        <time>2016-04-20T12:33:56Z</time>
      </trkpt>
      <trkpt lat="43.20704" lon="5.58231">
        <ele>106.6</ele>
        <time>2016-04-20T12:34:15Z</time>
      </trkpt>
      <trkpt lat="43.20703" lon="5.58232">
        <ele>107.4</ele>
        <time>2016-04-20T12:34:16Z</time>
      </trkpt>
      <trkpt lat="43.20686" lon="5.58272">
        <ele>106</ele>
        <time>2016-04-20T12:34:51Z</time>
      </trkpt>
      <trkpt lat="43.20677" lon="5.58294">
        <ele>105.4</ele>
        <time>2016-04-20T12:35:09Z</time>
      </trkpt>
      <trkpt lat="43.20665" lon="5.5831">
        <ele>108.1</ele>
        <time>2016-04-20T12:35:28Z</time>
      </trkpt>
      <trkpt lat="43.20664" lon="5.58311">
        <ele>108</ele>
        <time>2016-04-20T12:35:29Z</time>
      </trkpt>
      <trkpt lat="43.20646" lon="5.5835">
        <ele>107.5</ele>
        <time>2016-04-20T12:36:00Z</time>
      </trkpt>
      <trkpt lat="43.20633" lon="5.58367">
        <ele>112.4</ele>
        <time>2016-04-20T12:36:17Z</time>
      </trkpt>
      <trkpt lat="43.20623" lon="5.58387">
        <ele>110.5</ele>
        <time>2016-04-20T12:36:34Z</time>
      </trkpt>
      <trkpt lat="43.20622" lon="5.58388">
        <ele>110.8</ele>
        <time>2016-04-20T12:36:35Z</time>
      </trkpt>
      <trkpt lat="43.20607" lon="5.58429">
        <ele>106.4</ele>
        <time>2016-04-20T12:37:09Z</time>
      </trkpt>
      <trkpt lat="43.20602" lon="5.58453">
        <ele>105.8</ele>
        <time>2016-04-20T12:37:26Z</time>
      </trkpt>
      <trkpt lat="43.20599" lon="5.58476">
        <ele>109.5</ele>
        <time>2016-04-20T12:37:43Z</time>
      </trkpt>
      <trkpt lat="43.20599" lon="5.58477">
        <ele>109.6</ele>
        <time>2016-04-20T12:37:44Z</time>
      </trkpt>
      <trkpt lat="43.20579" lon="5.58514">
        <ele>112.8</ele>
        <time>2016-04-20T12:38:20Z</time>
      </trkpt>
      <trkpt lat="43.20564" lon="5.58528">
        <ele>111.6</ele>
        <time>2016-04-20T12:38:38Z</time>
      </trkpt>
      <trkpt lat="43.20553" lon="5.58544">
        <ele>119</ele>
        <time>2016-04-20T12:38:55Z</time>
      </trkpt>
      <trkpt lat="43.20552" lon="5.58545">
        <ele>119.3</ele>
        <time>2016-04-20T12:38:56Z</time>
      </trkpt>
      <trkpt lat="43.20525" lon="5.58574">
        <ele>111.6</ele>
        <time>2016-04-20T12:39:31Z</time>
      </trkpt>
      <trkpt lat="43.20511" lon="5.58588">
        <ele>113.5</ele>
        <time>2016-04-20T12:39:51Z</time>
      </trkpt>
      <trkpt lat="43.20494" lon="5.58592">
        <ele>117.1</ele>
        <time>2016-04-20T12:40:10Z</time>
      </trkpt>
      <trkpt lat="43.20493" lon="5.58592">
        <ele>118</ele>
        <time>2016-04-20T12:40:11Z</time>
      </trkpt>
      <trkpt lat="43.20459" lon="5.58589">
        <ele>131.1</ele>
        <time>2016-04-20T12:40:44Z</time>
      </trkpt>
      <trkpt lat="43.20443" lon="5.58578">
        <ele>131.3</ele>
        <time>2016-04-20T12:41:01Z</time>
      </trkpt>
      <trkpt lat="43.20428" lon="5.58566">
        <ele>132.5</ele>
        <time>2016-04-20T12:41:21Z</time>
      </trkpt>
      <trkpt lat="43.20427" lon="5.58565">
        <ele>132.6</ele>
        <time>2016-04-20T12:41:22Z</time>
      </trkpt>
      <trkpt lat="43.20403" lon="5.58533">
        <ele>140.5</ele>
        <time>2016-04-20T12:42:01Z</time>
      </trkpt>
      <trkpt lat="43.20404" lon="5.5851">
        <ele>140.6</ele>
        <time>2016-04-20T12:42:21Z</time>
      </trkpt>
      <trkpt lat="43.2041" lon="5.58488">
        <ele>139</ele>
        <time>2016-04-20T12:42:39Z</time>
      </trkpt>
      <trkpt lat="43.2041" lon="5.58486">
        <ele>139.5</ele>
        <time>2016-04-20T12:42:40Z</time>
      </trkpt>
      <trkpt lat="43.20422" lon="5.58444">
        <ele>138.8</ele>
        <time>2016-04-20T12:43:11Z</time>
      </trkpt>
      <trkpt lat="43.20427" lon="5.58421">
        <ele>138.8</ele>
        <time>2016-04-20T12:43:27Z</time>
      </trkpt>
      <trkpt lat="43.20432" lon="5.58398">
        <ele>136.3</ele>
        <time>2016-04-20T12:43:45Z</time>
      </trkpt>
      <trkpt lat="43.20432" lon="5.58396">
        <ele>137.1</ele>
        <time>2016-04-20T12:43:46Z</time>
      </trkpt>
      <trkpt lat="43.20437" lon="5.5835">
        <ele>140.8</ele>
        <time>2016-04-20T12:44:14Z</time>
      </trkpt>
      <trkpt lat="43.20439" lon="5.58327">
        <ele>136.6</ele>
        <time>2016-04-20T12:44:32Z</time>
      </trkpt>
      <trkpt lat="43.20422" lon="5.5833">
        <ele>136.8</ele>
        <time>2016-04-20T12:44:52Z</time>
      </trkpt>
      <trkpt lat="43.20421" lon="5.58331">
        <ele>136.3</ele>
        <time>2016-04-20T12:44:53Z</time>
      </trkpt>
      <trkpt lat="43.204" lon="5.58368">
        <ele>130.3</ele>
        <time>2016-04-20T12:45:25Z</time>
      </trkpt>
      <trkpt lat="43.20387" lon="5.58384">
        <ele>129</ele>
        <time>2016-04-20T12:45:41Z</time>
      </trkpt>
      <trkpt lat="43.2037" lon="5.5839">
        <ele>130.8</ele>
        <time>2016-04-20T12:45:57Z</time>
      </trkpt>
      <trkpt lat="43.20369" lon="5.5839">
        <ele>130.8</ele>
        <time>2016-04-20T12:45:58Z</time>
      </trkpt>
      <trkpt lat="43.20355" lon="5.58354">
        <ele>128.1</ele>
        <time>2016-04-20T12:46:34Z</time>
      </trkpt>
      <trkpt lat="43.20354" lon="5.58329">
        <ele>127.3</ele>
        <time>2016-04-20T12:46:50Z</time>
      </trkpt>
      <trkpt lat="43.20354" lon="5.58306">
        <ele>126</ele>
        <time>2016-04-20T12:47:06Z</time>
      </trkpt>
      <trkpt lat="43.20354" lon="5.58304">
        <ele>125.9</ele>
        <time>2016-04-20T12:47:07Z</time>
      </trkpt>
      <trkpt lat="43.20332" lon="5.58342">
        <ele>110.8</ele>
        <time>2016-04-20T12:48:10Z</time>
      </trkpt>
      <trkpt lat="43.20332" lon="5.58343">
        <ele>110.5</ele>
        <time>2016-04-20T12:48:11Z</time>
      </trkpt>
      <trkpt lat="43.20315" lon="5.58383">
        <ele>116.5</ele>
        <time>2016-04-20T12:48:38Z</time>
      </trkpt>
      <trkpt lat="43.20305" lon="5.58403">
        <ele>119.5</ele>
        <time>2016-04-20T12:48:53Z</time>
      </trkpt>
      <trkpt lat="43.2029" lon="5.58414">
        <ele>120.5</ele>
        <time>2016-04-20T12:49:08Z</time>
      </trkpt>
      <trkpt lat="43.20275" lon="5.58402">
        <ele>121.4</ele>
        <time>2016-04-20T12:49:26Z</time>
      </trkpt>
      <trkpt lat="43.20274" lon="5.584">
        <ele>122.5</ele>
        <time>2016-04-20T12:49:27Z</time>
      </trkpt>
      <trkpt lat="43.20252" lon="5.58408">
        <ele>121</ele>
        <time>2016-04-20T12:50:01Z</time>
      </trkpt>
      <trkpt lat="43.20237" lon="5.58423">
        <ele>122</ele>
        <time>2016-04-20T12:50:20Z</time>
      </trkpt>
      <trkpt lat="43.2022" lon="5.58426">
        <ele>124.1</ele>
        <time>2016-04-20T12:50:37Z</time>
      </trkpt>
      <trkpt lat="43.20219" lon="5.58427">
        <ele>124.3</ele>
        <time>2016-04-20T12:50:38Z</time>
      </trkpt>
      <trkpt lat="43.20187" lon="5.58434">
        <ele>126.3</ele>
        <time>2016-04-20T12:51:13Z</time>
      </trkpt>
      <trkpt lat="43.20169" lon="5.58428">
        <ele>128.8</ele>
        <time>2016-04-20T12:51:33Z</time>
      </trkpt>
      <trkpt lat="43.2016" lon="5.58407">
        <ele>129.1</ele>
        <time>2016-04-20T12:51:57Z</time>
      </trkpt>
      <trkpt lat="43.2016" lon="5.58406">
        <ele>129.1</ele>
        <time>2016-04-20T12:51:58Z</time>
      </trkpt>
      <trkpt lat="43.20135" lon="5.58375">
        <ele>134.3</ele>
        <time>2016-04-20T12:52:29Z</time>
      </trkpt>
      <trkpt lat="43.20118" lon="5.58373">
        <ele>137.6</ele>
        <time>2016-04-20T12:52:43Z</time>
      </trkpt>
      <trkpt lat="43.20104" lon="5.58386">
        <ele>137.6</ele>
        <time>2016-04-20T12:52:59Z</time>
      </trkpt>
      <trkpt lat="43.20103" lon="5.58387">
        <ele>137.6</ele>
        <time>2016-04-20T12:53:00Z</time>
      </trkpt>
      <trkpt lat="43.2008" lon="5.58421">
        <ele>136.6</ele>
        <time>2016-04-20T12:53:33Z</time>
      </trkpt>
      <trkpt lat="43.20066" lon="5.58437">
        <ele>137.3</ele>
        <time>2016-04-20T12:53:49Z</time>
      </trkpt>
      <trkpt lat="43.20049" lon="5.58438">
        <ele>137.1</ele>
        <time>2016-04-20T12:54:07Z</time>
      </trkpt>
      <trkpt lat="43.20048" lon="5.58437">
        <ele>137</ele>
        <time>2016-04-20T12:54:08Z</time>
      </trkpt>
      <trkpt lat="43.20056" lon="5.58398">
        <ele>137.3</ele>
        <time>2016-04-20T12:54:54Z</time>
      </trkpt>
      <trkpt lat="43.2007" lon="5.58385">
        <ele>140</ele>
        <time>2016-04-20T12:57:11Z</time>
      </trkpt>
      <trkpt lat="43.20071" lon="5.58384">
        <ele>140.1</ele>
        <time>2016-04-20T12:57:12Z</time>
      </trkpt>
      <trkpt lat="43.20094" lon="5.58349">
        <ele>143.5</ele>
        <time>2016-04-20T12:57:50Z</time>
      </trkpt>
      <trkpt lat="43.20104" lon="5.5833">
        <ele>145.6</ele>
        <time>2016-04-20T12:58:10Z</time>
      </trkpt>
      <trkpt lat="43.20117" lon="5.58313">
        <ele>149.1</ele>
        <time>2016-04-20T12:58:29Z</time>
      </trkpt>
      <trkpt lat="43.20118" lon="5.58312">
        <ele>149.3</ele>
        <time>2016-04-20T12:58:30Z</time>
      </trkpt>
      <trkpt lat="43.20149" lon="5.58295">
        <ele>151.8</ele>
        <time>2016-04-20T12:59:09Z</time>
      </trkpt>
      <trkpt lat="43.20167" lon="5.58291">
        <ele>152.8</ele>
        <time>2016-04-20T12:59:29Z</time>
      </trkpt>
      <trkpt lat="43.20182" lon="5.5828">
        <ele>155.3</ele>
        <time>2016-04-20T12:59:50Z</time>
      </trkpt>
      <trkpt lat="43.20183" lon="5.58279">
        <ele>155.5</ele>
        <time>2016-04-20T12:59:51Z</time>
      </trkpt>
      <trkpt lat="43.20206" lon="5.58244">
        <ele>161.3</ele>
        <time>2016-04-20T13:00:29Z</time>
      </trkpt>
      <trkpt lat="43.20216" lon="5.58224">
        <ele>160.6</ele>
        <time>2016-04-20T13:00:52Z</time>
      </trkpt>
      <trkpt lat="43.20216" lon="5.58223">
        <ele>160.3</ele>
        <time>2016-04-20T13:00:53Z</time>
      </trkpt>
      <trkpt lat="43.2024" lon="5.5819">
        <ele>165.1</ele>
        <time>2016-04-20T13:01:41Z</time>
      </trkpt>
      <trkpt lat="43.20225" lon="5.58178">
        <ele>171</ele>
        <time>2016-04-20T13:02:28Z</time>
      </trkpt>
      <trkpt lat="43.20224" lon="5.58178">
        <ele>171</ele>
        <time>2016-04-20T13:02:29Z</time>
      </trkpt>
      <trkpt lat="43.202" lon="5.58145">
        <ele>173.3</ele>
        <time>2016-04-20T13:03:09Z</time>
      </trkpt>
      <trkpt lat="43.20191" lon="5.58124">
        <ele>177.3</ele>
        <time>2016-04-20T13:05:11Z</time>
      </trkpt>
      <trkpt lat="43.20191" lon="5.58124">
        <ele>177.1</ele>
        <time>2016-04-20T13:05:12Z</time>
      </trkpt>
      <trkpt lat="43.20182" lon="5.58078">
        <ele>170.6</ele>
        <time>2016-04-20T13:05:55Z</time>
      </trkpt>
      <trkpt lat="43.20181" lon="5.58054">
        <ele>169</ele>
        <time>2016-04-20T13:06:15Z</time>
      </trkpt>
      <trkpt lat="43.20181" lon="5.58053">
        <ele>168.6</ele>
        <time>2016-04-20T13:06:16Z</time>
      </trkpt>
      <trkpt lat="43.20179" lon="5.58005">
        <ele>165.8</ele>
        <time>2016-04-20T13:06:53Z</time>
      </trkpt>
      <trkpt lat="43.20171" lon="5.57984">
        <ele>164.6</ele>
        <time>2016-04-20T13:07:12Z</time>
      </trkpt>
      <trkpt lat="43.20157" lon="5.57971">
        <ele>165.8</ele>
        <time>2016-04-20T13:07:25Z</time>
      </trkpt>
      <trkpt lat="43.20156" lon="5.5797">
        <ele>165.8</ele>
        <time>2016-04-20T13:07:26Z</time>
      </trkpt>
      <trkpt lat="43.2015" lon="5.57926">
        <ele>163.6</ele>
        <time>2016-04-20T13:07:58Z</time>
      </trkpt>
      <trkpt lat="43.20156" lon="5.57904">
        <ele>162.6</ele>
        <time>2016-04-20T13:08:15Z</time>
      </trkpt>
      <trkpt lat="43.20162" lon="5.5788">
        <ele>162.3</ele>
        <time>2016-04-20T13:08:31Z</time>
      </trkpt>
      <trkpt lat="43.20162" lon="5.57879">
        <ele>162.3</ele>
        <time>2016-04-20T13:08:32Z</time>
      </trkpt>
      <trkpt lat="43.20176" lon="5.57838">
        <ele>163.6</ele>
        <time>2016-04-20T13:09:00Z</time>
      </trkpt>
      <trkpt lat="43.20184" lon="5.57816">
        <ele>162.3</ele>
        <time>2016-04-20T13:09:16Z</time>
      </trkpt>
      <trkpt lat="43.20194" lon="5.57797">
        <ele>163.3</ele>
        <time>2016-04-20T13:09:29Z</time>
      </trkpt>
      <trkpt lat="43.20203" lon="5.57776">
        <ele>160.1</ele>
        <time>2016-04-20T13:09:46Z</time>
      </trkpt>
      <trkpt lat="43.20203" lon="5.57775">
        <ele>159.8</ele>
        <time>2016-04-20T13:09:47Z</time>
      </trkpt>
      <trkpt lat="43.20212" lon="5.5773">
        <ele>159.3</ele>
        <time>2016-04-20T13:10:16Z</time>
      </trkpt>
      <trkpt lat="43.20216" lon="5.57708">
        <ele>155.8</ele>
        <time>2016-04-20T13:10:31Z</time>
      </trkpt>
      <trkpt lat="43.20216" lon="5.57686">
        <ele>156.8</ele>
        <time>2016-04-20T13:10:44Z</time>
      </trkpt>
      <trkpt lat="43.20217" lon="5.57662">
        <ele>158.5</ele>
        <time>2016-04-20T13:10:58Z</time>
      </trkpt>
      <trkpt lat="43.20217" lon="5.5766">
        <ele>159.3</ele>
        <time>2016-04-20T13:10:59Z</time>
      </trkpt>
      <trkpt lat="43.20221" lon="5.57615">
        <ele>158.3</ele>
        <time>2016-04-20T13:11:28Z</time>
      </trkpt>
      <trkpt lat="43.20218" lon="5.57591">
        <ele>158.1</ele>
        <time>2016-04-20T13:11:43Z</time>
      </trkpt>
      <trkpt lat="43.20215" lon="5.57567">
        <ele>158.1</ele>
        <time>2016-04-20T13:11:58Z</time>
      </trkpt>
      <trkpt lat="43.20216" lon="5.57543">
        <ele>159.3</ele>
        <time>2016-04-20T13:12:14Z</time>
      </trkpt>
      <trkpt lat="43.20216" lon="5.57542">
        <ele>159.1</ele>
        <time>2016-04-20T13:12:15Z</time>
      </trkpt>
      <trkpt lat="43.20207" lon="5.57586">
        <ele>152.8</ele>
        <time>2016-04-20T13:13:04Z</time>
      </trkpt>
      <trkpt lat="43.20206" lon="5.5761">
        <ele>153.3</ele>
        <time>2016-04-20T13:13:20Z</time>
      </trkpt>
      <trkpt lat="43.20206" lon="5.57611">
        <ele>152.6</ele>
        <time>2016-04-20T13:13:21Z</time>
      </trkpt>
      <trkpt lat="43.20191" lon="5.57654">
        <ele>141.5</ele>
        <time>2016-04-20T13:14:02Z</time>
      </trkpt>
      <trkpt lat="43.2018" lon="5.57673">
        <ele>144.8</ele>
        <time>2016-04-20T13:14:22Z</time>
      </trkpt>
      <trkpt lat="43.20179" lon="5.57674">
        <ele>145</ele>
        <time>2016-04-20T13:14:23Z</time>
      </trkpt>
      <trkpt lat="43.20163" lon="5.57715">
        <ele>142.8</ele>
        <time>2016-04-20T13:15:03Z</time>
      </trkpt>
      <trkpt lat="43.20152" lon="5.57735">
        <ele>145.1</ele>
        <time>2016-04-20T13:15:20Z</time>
      </trkpt>
      <trkpt lat="43.20145" lon="5.57756">
        <ele>140.3</ele>
        <time>2016-04-20T13:15:35Z</time>
      </trkpt>
      <trkpt lat="43.20145" lon="5.57757">
        <ele>139.8</ele>
        <time>2016-04-20T13:15:36Z</time>
      </trkpt>
      <trkpt lat="43.20124" lon="5.57793">
        <ele>135</ele>
        <time>2016-04-20T13:16:09Z</time>
      </trkpt>
      <trkpt lat="43.20114" lon="5.57812">
        <ele>133.8</ele>
        <time>2016-04-20T13:16:25Z</time>
      </trkpt>
      <trkpt lat="43.20104" lon="5.5783">
        <ele>132.8</ele>
        <time>2016-04-20T13:16:39Z</time>
      </trkpt>
      <trkpt lat="43.20103" lon="5.57832">
        <ele>132.8</ele>
        <time>2016-04-20T13:16:40Z</time>
      </trkpt>
      <trkpt lat="43.20078" lon="5.57865">
        <ele>134.6</ele>
        <time>2016-04-20T13:17:10Z</time>
      </trkpt>
      <trkpt lat="43.2007" lon="5.57885">
        <ele>130.1</ele>
        <time>2016-04-20T13:17:26Z</time>
      </trkpt>
      <trkpt lat="43.20059" lon="5.57902">
        <ele>126.8</ele>
        <time>2016-04-20T13:17:42Z</time>
      </trkpt>
      <trkpt lat="43.20058" lon="5.57904">
        <ele>126.3</ele>
        <time>2016-04-20T13:17:43Z</time>
      </trkpt>
      <trkpt lat="43.20032" lon="5.57932">
        <ele>119.5</ele>
        <time>2016-04-20T13:18:16Z</time>
      </trkpt>
      <trkpt lat="43.20017" lon="5.57944">
        <ele>114.9</ele>
        <time>2016-04-20T13:18:35Z</time>
      </trkpt>
      <trkpt lat="43.20003" lon="5.57956">
        <ele>119.6</ele>
        <time>2016-04-20T13:18:47Z</time>
      </trkpt>
      <trkpt lat="43.20001" lon="5.57956">
        <ele>119.9</ele>
        <time>2016-04-20T13:18:48Z</time>
      </trkpt>
      <trkpt lat="43.19972" lon="5.57979">
        <ele>120.8</ele>
        <time>2016-04-20T13:19:18Z</time>
      </trkpt>
      <trkpt lat="43.19959" lon="5.57995">
        <ele>118</ele>
        <time>2016-04-20T13:19:34Z</time>
      </trkpt>
      <trkpt lat="43.19948" lon="5.58014">
        <ele>118.1</ele>
        <time>2016-04-20T13:19:49Z</time>
      </trkpt>
      <trkpt lat="43.19948" lon="5.58015">
        <ele>118</ele>
        <time>2016-04-20T13:19:50Z</time>
      </trkpt>
      <trkpt lat="43.19924" lon="5.58048">
        <ele>115.9</ele>
        <time>2016-04-20T13:20:21Z</time>
      </trkpt>
      <trkpt lat="43.19913" lon="5.58066">
        <ele>116</ele>
        <time>2016-04-20T13:20:35Z</time>
      </trkpt>
      <trkpt lat="43.199" lon="5.58083">
        <ele>112.1</ele>
        <time>2016-04-20T13:20:51Z</time>
      </trkpt>
      <trkpt lat="43.19899" lon="5.58083">
        <ele>112</ele>
        <time>2016-04-20T13:20:52Z</time>
      </trkpt>
      <trkpt lat="43.19871" lon="5.58108">
        <ele>111.1</ele>
        <time>2016-04-20T13:21:25Z</time>
      </trkpt>
      <trkpt lat="43.19858" lon="5.58125">
        <ele>107</ele>
        <time>2016-04-20T13:21:42Z</time>
      </trkpt>
      <trkpt lat="43.19853" lon="5.58149">
        <ele>100.6</ele>
        <time>2016-04-20T13:22:03Z</time>
      </trkpt>
      <trkpt lat="43.19853" lon="5.5815">
        <ele>100.4</ele>
        <time>2016-04-20T13:22:04Z</time>
      </trkpt>
      <trkpt lat="43.19849" lon="5.58196">
        <ele>104.6</ele>
        <time>2016-04-20T13:22:35Z</time>
      </trkpt>
      <trkpt lat="43.19854" lon="5.58219">
        <ele>106.6</ele>
        <time>2016-04-20T13:22:50Z</time>
      </trkpt>
      <trkpt lat="43.1986" lon="5.58242">
        <ele>105.5</ele>
        <time>2016-04-20T13:23:06Z</time>
      </trkpt>
      <trkpt lat="43.1986" lon="5.58244">
        <ele>105.4</ele>
        <time>2016-04-20T13:23:07Z</time>
      </trkpt>
      <trkpt lat="43.19862" lon="5.58291">
        <ele>104</ele>
        <time>2016-04-20T13:23:41Z</time>
      </trkpt>
      <trkpt lat="43.19851" lon="5.58311">
        <ele>100.9</ele>
        <time>2016-04-20T13:24:00Z</time>
      </trkpt>
      <trkpt lat="43.19844" lon="5.58333">
        <ele>101.5</ele>
        <time>2016-04-20T13:24:17Z</time>
      </trkpt>
      <trkpt lat="43.19844" lon="5.58334">
        <ele>101.1</ele>
        <time>2016-04-20T13:24:18Z</time>
      </trkpt>
      <trkpt lat="43.1983" lon="5.58377">
        <ele>98.4</ele>
        <time>2016-04-20T13:24:51Z</time>
      </trkpt>
      <trkpt lat="43.19819" lon="5.58395">
        <ele>98.3</ele>
        <time>2016-04-20T13:25:07Z</time>
      </trkpt>
      <trkpt lat="43.19807" lon="5.58412">
        <ele>99.8</ele>
        <time>2016-04-20T13:25:22Z</time>
      </trkpt>
      <trkpt lat="43.19806" lon="5.58413">
        <ele>99.5</ele>
        <time>2016-04-20T13:25:23Z</time>
      </trkpt>
      <trkpt lat="43.19779" lon="5.58441">
        <ele>101.8</ele>
        <time>2016-04-20T13:25:52Z</time>
      </trkpt>
      <trkpt lat="43.19765" lon="5.58457">
        <ele>106.8</ele>
        <time>2016-04-20T13:26:07Z</time>
      </trkpt>
      <trkpt lat="43.19755" lon="5.58476">
        <ele>108</ele>
        <time>2016-04-20T13:26:22Z</time>
      </trkpt>
      <trkpt lat="43.19756" lon="5.585">
        <ele>105.5</ele>
        <time>2016-04-20T13:26:37Z</time>
      </trkpt>
      <trkpt lat="43.19756" lon="5.58502">
        <ele>104.9</ele>
        <time>2016-04-20T13:26:38Z</time>
      </trkpt>
      <trkpt lat="43.19768" lon="5.58545">
        <ele>93.5</ele>
        <time>2016-04-20T13:27:18Z</time>
      </trkpt>
      <trkpt lat="43.19761" lon="5.58566">
        <ele>91.4</ele>
        <time>2016-04-20T13:27:36Z</time>
      </trkpt>
      <trkpt lat="43.19754" lon="5.58588">
        <ele>91</ele>
        <time>2016-04-20T13:27:51Z</time>
      </trkpt>
      <trkpt lat="43.19754" lon="5.58589">
        <ele>91.3</ele>
        <time>2016-04-20T13:27:52Z</time>
      </trkpt>
      <trkpt lat="43.19737" lon="5.58628">
        <ele>92.8</ele>
        <time>2016-04-20T13:28:19Z</time>
      </trkpt>
      <trkpt lat="43.19726" lon="5.58647">
        <ele>92.5</ele>
        <time>2016-04-20T13:28:33Z</time>
      </trkpt>
      <trkpt lat="43.19714" lon="5.58664">
        <ele>92</ele>
        <time>2016-04-20T13:28:50Z</time>
      </trkpt>
      <trkpt lat="43.19703" lon="5.58683">
        <ele>89</ele>
        <time>2016-04-20T13:29:05Z</time>
      </trkpt>
      <trkpt lat="43.19703" lon="5.58684">
        <ele>88.5</ele>
        <time>2016-04-20T13:29:06Z</time>
      </trkpt>
      <trkpt lat="43.19702" lon="5.58731">
        <ele>89.8</ele>
        <time>2016-04-20T13:29:49Z</time>
      </trkpt>
      <trkpt lat="43.19694" lon="5.58752">
        <ele>83</ele>
        <time>2016-04-20T13:30:07Z</time>
      </trkpt>
      <trkpt lat="43.19693" lon="5.58753">
        <ele>82.6</ele>
        <time>2016-04-20T13:30:08Z</time>
      </trkpt>
      <trkpt lat="43.19663" lon="5.58772">
        <ele>82</ele>
        <time>2016-04-20T13:30:37Z</time>
      </trkpt>
      <trkpt lat="43.19648" lon="5.58784">
        <ele>83.8</ele>
        <time>2016-04-20T13:30:50Z</time>
      </trkpt>
      <trkpt lat="43.19632" lon="5.58793">
        <ele>78.9</ele>
        <time>2016-04-20T13:31:08Z</time>
      </trkpt>
      <trkpt lat="43.19631" lon="5.58794">
        <ele>79.1</ele>
        <time>2016-04-20T13:31:09Z</time>
      </trkpt>
      <trkpt lat="43.19618" lon="5.58837">
        <ele>86.4</ele>
        <time>2016-04-20T13:31:38Z</time>
      </trkpt>
      <trkpt lat="43.19609" lon="5.58856">
        <ele>89</ele>
        <time>2016-04-20T13:31:56Z</time>
      </trkpt>
      <trkpt lat="43.19597" lon="5.58873">
        <ele>88.5</ele>
        <time>2016-04-20T13:32:13Z</time>
      </trkpt>
      <trkpt lat="43.19596" lon="5.58874">
        <ele>88</ele>
        <time>2016-04-20T13:32:14Z</time>
      </trkpt>
      <trkpt lat="43.19578" lon="5.58915">
        <ele>91.1</ele>
        <time>2016-04-20T13:32:49Z</time>
      </trkpt>
      <trkpt lat="43.19566" lon="5.58932">
        <ele>90.4</ele>
        <time>2016-04-20T13:33:09Z</time>
      </trkpt>
      <trkpt lat="43.19551" lon="5.58943">
        <ele>88.1</ele>
        <time>2016-04-20T13:33:28Z</time>
      </trkpt>
      <trkpt lat="43.19549" lon="5.58943">
        <ele>87.6</ele>
        <time>2016-04-20T13:33:29Z</time>
      </trkpt>
      <trkpt lat="43.19519" lon="5.5896">
        <ele>92</ele>
        <time>2016-04-20T13:33:56Z</time>
      </trkpt>
      <trkpt lat="43.19503" lon="5.58969">
        <ele>92.1</ele>
        <time>2016-04-20T13:34:10Z</time>
      </trkpt>
      <trkpt lat="43.19485" lon="5.58969">
        <ele>92</ele>
        <time>2016-04-20T13:34:27Z</time>
      </trkpt>
      <trkpt lat="43.19468" lon="5.58966">
        <ele>93.5</ele>
        <time>2016-04-20T13:34:42Z</time>
      </trkpt>
      <trkpt lat="43.19467" lon="5.58966">
        <ele>94.1</ele>
        <time>2016-04-20T13:34:43Z</time>
      </trkpt>
      <trkpt lat="43.19434" lon="5.58961">
        <ele>90.8</ele>
        <time>2016-04-20T13:35:13Z</time>
      </trkpt>
      <trkpt lat="43.19416" lon="5.58961">
        <ele>89.6</ele>
        <time>2016-04-20T13:35:28Z</time>
      </trkpt>
      <trkpt lat="43.19399" lon="5.58967">
        <ele>97.4</ele>
        <time>2016-04-20T13:35:43Z</time>
      </trkpt>
      <trkpt lat="43.19398" lon="5.58968">
        <ele>97.3</ele>
        <time>2016-04-20T13:35:44Z</time>
      </trkpt>
      <trkpt lat="43.19365" lon="5.58977">
        <ele>95</ele>
        <time>2016-04-20T13:36:14Z</time>
      </trkpt>
      <trkpt lat="43.19356" lon="5.58998">
        <ele>96.1</ele>
        <time>2016-04-20T13:36:31Z</time>
      </trkpt>
      <trkpt lat="43.1935" lon="5.59021">
        <ele>91.9</ele>
        <time>2016-04-20T13:36:48Z</time>
      </trkpt>
      <trkpt lat="43.19349" lon="5.59022">
        <ele>92.6</ele>
        <time>2016-04-20T13:36:49Z</time>
      </trkpt>
      <trkpt lat="43.19322" lon="5.59032">
        <ele>90</ele>
        <time>2016-04-20T13:37:21Z</time>
      </trkpt>
      <trkpt lat="43.19306" lon="5.59026">
        <ele>93.3</ele>
        <time>2016-04-20T13:37:35Z</time>
      </trkpt>
      <trkpt lat="43.19291" lon="5.59017">
        <ele>92.4</ele>
        <time>2016-04-20T13:37:50Z</time>
      </trkpt>
      <trkpt lat="43.19289" lon="5.59015">
        <ele>92.5</ele>
        <time>2016-04-20T13:37:51Z</time>
      </trkpt>
      <trkpt lat="43.19257" lon="5.59005">
        <ele>91.6</ele>
        <time>2016-04-20T13:38:20Z</time>
      </trkpt>
      <trkpt lat="43.1924" lon="5.59012">
        <ele>93</ele>
        <time>2016-04-20T13:38:43Z</time>
      </trkpt>
      <trkpt lat="43.19225" lon="5.59024">
        <ele>91.9</ele>
        <time>2016-04-20T13:39:03Z</time>
      </trkpt>
      <trkpt lat="43.19224" lon="5.59024">
        <ele>91.3</ele>
        <time>2016-04-20T13:39:04Z</time>
      </trkpt>
      <trkpt lat="43.19193" lon="5.59043">
        <ele>84</ele>
        <time>2016-04-20T13:39:40Z</time>
      </trkpt>
      <trkpt lat="43.19176" lon="5.59051">
        <ele>84.9</ele>
        <time>2016-04-20T13:39:55Z</time>
      </trkpt>
      <trkpt lat="43.1916" lon="5.59058">
        <ele>88</ele>
        <time>2016-04-20T13:40:08Z</time>
      </trkpt>
      <trkpt lat="43.19159" lon="5.59058">
        <ele>88.4</ele>
        <time>2016-04-20T13:40:09Z</time>
      </trkpt>
      <trkpt lat="43.19126" lon="5.59067">
        <ele>80.1</ele>
        <time>2016-04-20T13:40:41Z</time>
      </trkpt>
      <trkpt lat="43.1911" lon="5.59078">
        <ele>79.9</ele>
        <time>2016-04-20T13:40:57Z</time>
      </trkpt>
      <trkpt lat="43.19094" lon="5.59086">
        <ele>80.5</ele>
        <time>2016-04-20T13:41:12Z</time>
      </trkpt>
      <trkpt lat="43.19093" lon="5.59086">
        <ele>79.8</ele>
        <time>2016-04-20T13:41:13Z</time>
      </trkpt>
      <trkpt lat="43.19061" lon="5.59099">
        <ele>80.9</ele>
        <time>2016-04-20T13:41:38Z</time>
      </trkpt>
      <trkpt lat="43.19046" lon="5.5911">
        <ele>82</ele>
        <time>2016-04-20T13:41:52Z</time>
      </trkpt>
      <trkpt lat="43.19029" lon="5.59119">
        <ele>81.1</ele>
        <time>2016-04-20T13:42:08Z</time>
      </trkpt>
      <trkpt lat="43.19011" lon="5.59117">
        <ele>78.8</ele>
        <time>2016-04-20T13:42:25Z</time>
      </trkpt>
      <trkpt lat="43.1901" lon="5.59117">
        <ele>78.6</ele>
        <time>2016-04-20T13:42:26Z</time>
      </trkpt>
      <trkpt lat="43.18983" lon="5.59142">
        <ele>80.3</ele>
        <time>2016-04-20T13:42:58Z</time>
      </trkpt>
      <trkpt lat="43.1897" lon="5.59158">
        <ele>88</ele>
        <time>2016-04-20T13:43:11Z</time>
      </trkpt>
      <trkpt lat="43.18956" lon="5.5917">
        <ele>82.4</ele>
        <time>2016-04-20T13:43:29Z</time>
      </trkpt>
      <trkpt lat="43.18955" lon="5.59172">
        <ele>82.3</ele>
        <time>2016-04-20T13:43:30Z</time>
      </trkpt>
      <trkpt lat="43.18937" lon="5.59211">
        <ele>76.9</ele>
        <time>2016-04-20T13:44:10Z</time>
      </trkpt>
      <trkpt lat="43.18926" lon="5.5923">
        <ele>75.5</ele>
        <time>2016-04-20T13:44:27Z</time>
      </trkpt>
      <trkpt lat="43.18915" lon="5.59249">
        <ele>64.5</ele>
        <time>2016-04-20T13:44:48Z</time>
      </trkpt>
      <trkpt lat="43.18915" lon="5.5925">
        <ele>64.5</ele>
        <time>2016-04-20T13:44:49Z</time>
      </trkpt>
      <trkpt lat="43.18889" lon="5.5928">
        <ele>69</ele>
        <time>2016-04-20T13:45:18Z</time>
      </trkpt>
      <trkpt lat="43.18875" lon="5.59294">
        <ele>71.8</ele>
        <time>2016-04-20T13:45:34Z</time>
      </trkpt>
      <trkpt lat="43.1886" lon="5.59306">
        <ele>72.5</ele>
        <time>2016-04-20T13:45:52Z</time>
      </trkpt>
      <trkpt lat="43.18859" lon="5.59307">
        <ele>71.4</ele>
        <time>2016-04-20T13:45:53Z</time>
      </trkpt>
      <trkpt lat="43.18828" lon="5.59324">
        <ele>64.6</ele>
        <time>2016-04-20T13:46:29Z</time>
      </trkpt>
      <trkpt lat="43.1881" lon="5.59328">
        <ele>67</ele>
        <time>2016-04-20T13:46:45Z</time>
      </trkpt>
      <trkpt lat="43.18794" lon="5.59334">
        <ele>61.4</ele>
        <time>2016-04-20T13:47:03Z</time>
      </trkpt>
      <trkpt lat="43.18793" lon="5.59335">
        <ele>61.7</ele>
        <time>2016-04-20T13:47:04Z</time>
      </trkpt>
      <trkpt lat="43.18762" lon="5.59355">
        <ele>68.4</ele>
        <time>2016-04-20T13:47:35Z</time>
      </trkpt>
      <trkpt lat="43.18746" lon="5.59363">
        <ele>69.3</ele>
        <time>2016-04-20T13:47:53Z</time>
      </trkpt>
      <trkpt lat="43.18735" lon="5.59381">
        <ele>62.2</ele>
        <time>2016-04-20T13:48:08Z</time>
      </trkpt>
      <trkpt lat="43.18734" lon="5.59381">
        <ele>62.5</ele>
        <time>2016-04-20T13:48:09Z</time>
      </trkpt>
      <trkpt lat="43.18714" lon="5.59418">
        <ele>56.7</ele>
        <time>2016-04-20T13:48:43Z</time>
      </trkpt>
      <trkpt lat="43.18706" lon="5.59439">
        <ele>56.9</ele>
        <time>2016-04-20T13:48:57Z</time>
      </trkpt>
      <trkpt lat="43.18696" lon="5.59458">
        <ele>60.5</ele>
        <time>2016-04-20T13:49:12Z</time>
      </trkpt>
      <trkpt lat="43.18695" lon="5.5946">
        <ele>61</ele>
        <time>2016-04-20T13:49:13Z</time>
      </trkpt>
      <trkpt lat="43.18673" lon="5.59492">
        <ele>61.5</ele>
        <time>2016-04-20T13:49:33Z</time>
      </trkpt>
      <trkpt lat="43.18659" lon="5.59507">
        <ele>61.7</ele>
        <time>2016-04-20T13:49:50Z</time>
      </trkpt>
      <trkpt lat="43.18648" lon="5.59524">
        <ele>58.5</ele>
        <time>2016-04-20T13:50:08Z</time>
      </trkpt>
      <trkpt lat="43.18636" lon="5.59541">
        <ele>59.2</ele>
        <time>2016-04-20T13:50:22Z</time>
      </trkpt>
      <trkpt lat="43.18635" lon="5.59542">
        <ele>59</ele>
        <time>2016-04-20T13:50:23Z</time>
      </trkpt>
      <trkpt lat="43.18605" lon="5.59561">
        <ele>46</ele>
        <time>2016-04-20T13:50:56Z</time>
      </trkpt>
      <trkpt lat="43.18589" lon="5.5957">
        <ele>44.2</ele>
        <time>2016-04-20T13:51:13Z</time>
      </trkpt>
      <trkpt lat="43.18572" lon="5.59577">
        <ele>44.9</ele>
        <time>2016-04-20T13:51:28Z</time>
      </trkpt>
      <trkpt lat="43.18571" lon="5.59578">
        <ele>44</ele>
        <time>2016-04-20T13:51:29Z</time>
      </trkpt>
      <trkpt lat="43.18538" lon="5.59583">
        <ele>43.5</ele>
        <time>2016-04-20T13:52:01Z</time>
      </trkpt>
      <trkpt lat="43.18521" lon="5.59578">
        <ele>39</ele>
        <time>2016-04-20T13:52:21Z</time>
      </trkpt>
      <trkpt lat="43.1851" lon="5.59596">
        <ele>44</ele>
        <time>2016-04-20T13:52:38Z</time>
      </trkpt>
      <trkpt lat="43.18509" lon="5.59597">
        <ele>44</ele>
        <time>2016-04-20T13:52:39Z</time>
      </trkpt>
      <trkpt lat="43.18482" lon="5.59624">
        <ele>46.5</ele>
        <time>2016-04-20T13:53:14Z</time>
      </trkpt>
      <trkpt lat="43.18491" lon="5.59645">
        <ele>43.2</ele>
        <time>2016-04-20T13:54:26Z</time>
      </trkpt>
      <trkpt lat="43.18491" lon="5.59646">
        <ele>43.4</ele>
        <time>2016-04-20T13:54:27Z</time>
      </trkpt>
      <trkpt lat="43.18481" lon="5.5969">
        <ele>38.7</ele>
        <time>2016-04-20T13:55:01Z</time>
      </trkpt>
      <trkpt lat="43.18475" lon="5.59713">
        <ele>36.5</ele>
        <time>2016-04-20T13:55:19Z</time>
      </trkpt>
      <trkpt lat="43.18467" lon="5.59735">
        <ele>39.7</ele>
        <time>2016-04-20T13:55:34Z</time>
      </trkpt>
      <trkpt lat="43.18467" lon="5.59736">
        <ele>39.5</ele>
        <time>2016-04-20T13:55:35Z</time>
      </trkpt>
      <trkpt lat="43.1846" lon="5.59781">
        <ele>34.9</ele>
        <time>2016-04-20T13:56:09Z</time>
      </trkpt>
      <trkpt lat="43.18457" lon="5.59804">
        <ele>31.3</ele>
        <time>2016-04-20T13:56:27Z</time>
      </trkpt>
      <trkpt lat="43.18454" lon="5.59828">
        <ele>37.4</ele>
        <time>2016-04-20T13:56:49Z</time>
      </trkpt>
      <trkpt lat="43.18454" lon="5.59829">
        <ele>37.4</ele>
        <time>2016-04-20T13:56:50Z</time>
      </trkpt>
      <trkpt lat="43.18455" lon="5.59875">
        <ele>30.7</ele>
        <time>2016-04-20T13:57:28Z</time>
      </trkpt>
      <trkpt lat="43.18456" lon="5.599">
        <ele>30</ele>
        <time>2016-04-20T13:57:50Z</time>
      </trkpt>
      <trkpt lat="43.18457" lon="5.59901">
        <ele>30</ele>
        <time>2016-04-20T13:57:51Z</time>
      </trkpt>
      <trkpt lat="43.18451" lon="5.5992">
        <ele>31.7</ele>
        <time>2016-04-20T13:58:36Z</time>
      </trkpt>
      <trkpt lat="43.18434" lon="5.59917">
        <ele>31.7</ele>
        <time>2016-04-20T13:58:53Z</time>
      </trkpt>
      <trkpt lat="43.18433" lon="5.59916">
        <ele>32</ele>
        <time>2016-04-20T13:58:54Z</time>
      </trkpt>
      <trkpt lat="43.18406" lon="5.5993">
        <ele>36.9</ele>
        <time>2016-04-20T13:59:32Z</time>
      </trkpt>
      <trkpt lat="43.1839" lon="5.59939">
        <ele>36.5</ele>
        <time>2016-04-20T13:59:50Z</time>
      </trkpt>
      <trkpt lat="43.18372" lon="5.59934">
        <ele>33.2</ele>
        <time>2016-04-20T14:00:09Z</time>
      </trkpt>
      <trkpt lat="43.18372" lon="5.59934">
        <ele>32.7</ele>
        <time>2016-04-20T14:00:10Z</time>
      </trkpt>
    </trkseg>
  </trk>
</gpx>